Observation data for Sterling City on 06/20/2019      Previous  Date  Next       Current Mesonet Observations  Soil Data  Daily Summary Page  Observations in Plain Language
KSC1 200500Z 06002KT 23/16 A2983 RMK A01 T02270155  RH  064%=      5-min Rain = 0
KSC1 200501Z 05002KT 23/16 A2983 RMK A01 T02280155  RH  064%=      5-min Rain = 0
KSC1 200502Z 05002KT 23/16 A2983 RMK A01 T02290155  RH  063%=      5-min Rain = 0
KSC1 200503Z 04002KT 23/16 A2983 RMK A01 T02290155  RH  063%=      5-min Rain = 0
KSC1 200504Z 05003KT 23/16 A2983 RMK A01 T02290155  RH  063%=      5-min Rain = 0
KSC1 200505Z 06002KT 23/16 A2983 RMK A01 T02300156  RH  063%=      5-min Rain = 0
KSC1 200506Z 05003KT 23/16 A2983 RMK A01 T02290156  RH  063%=      5-min Rain = 0
KSC1 200507Z 05005KT 23/16 A2983 RMK A01 T02290156  RH  063%=      5-min Rain = 0
KSC1 200508Z 06004KT 23/16 A2983 RMK A01 T02290156  RH  063%=      5-min Rain = 0
KSC1 200509Z 06004KT 23/16 A2983 RMK A01 T02290156  RH  063%=      5-min Rain = 0
KSC1 200510Z 05003KT 23/16 A2983 RMK A01 T02290155  RH  063%=      5-min Rain = 0
KSC1 200511Z 04004KT 23/16 A2983 RMK A01 T02310155  RH  062%=      5-min Rain = 0
KSC1 200512Z 04003KT 23/16 A2983 RMK A01 T02310155  RH  062%=      5-min Rain = 0
KSC1 200513Z 05004KT 23/16 A2983 RMK A01 T02310156  RH  063%=      5-min Rain = 0
KSC1 200514Z 06004KT 23/16 A2983 RMK A01 T02300155  RH  063%=      5-min Rain = 0
KSC1 200515Z 06004KT 23/16 A2983 RMK A01 T02290155  RH  063%=      5-min Rain = 0
KSC1 200516Z 06003KT 23/16 A2983 RMK A01 T02290155  RH  063%=      5-min Rain = 0
KSC1 200517Z 06003KT 23/16 A2983 RMK A01 T02300155  RH  063%=      5-min Rain = 0
KSC1 200518Z 06004KT 23/16 A2983 RMK A01 T02300155  RH  063%=      5-min Rain = 0
KSC1 200519Z 05004KT 23/16 A2983 RMK A01 T02290155  RH  063%=      5-min Rain = 0
KSC1 200520Z 08002KT 23/16 A2983 RMK A01 T02290156  RH  063%=      5-min Rain = 0
KSC1 200521Z 10001KT 23/16 A2983 RMK A01 T02290156  RH  063%=      5-min Rain = 0
KSC1 200522Z 10002KT 23/16 A2983 RMK A01 T02290156  RH  063%=      5-min Rain = 0
KSC1 200523Z 08002KT 23/16 A2983 RMK A01 T02290155  RH  063%=      5-min Rain = 0
KSC1 200524Z 08002KT 23/16 A2983 RMK A01 T02290156  RH  063%=      5-min Rain = 0
KSC1 200525Z 07002KT 23/16 A2983 RMK A01 T02280156  RH  064%=      5-min Rain = 0
KSC1 200526Z 08002KT 23/16 A2983 RMK A01 T02280156  RH  064%=      5-min Rain = 0
KSC1 200527Z 07002KT 23/16 A2983 RMK A01 T02270156  RH  064%=      5-min Rain = 0
KSC1 200528Z 09001KT 23/16 A2983 RMK A01 T02270156  RH  064%=      5-min Rain = 0
KSC1 200529Z 10001KT 23/16 A2983 RMK A01 T02260156  RH  065%=      5-min Rain = 0
KSC1 200530Z 10001KT 23/16 A2983 RMK A01 T02250155  RH  064%=      5-min Rain = 0
KSC1 200531Z 10002KT 23/16 A2983 RMK A01 T02250155  RH  064%=      5-min Rain = 0
KSC1 200532Z 10002KT 23/16 A2983 RMK A01 T02250155  RH  065%=      5-min Rain = 0
KSC1 200533Z 09002KT 23/16 A2983 RMK A01 T02250157  RH  065%=      5-min Rain = 0
KSC1 200534Z 09002KT 23/16 A2983 RMK A01 T02250155  RH  064%=      5-min Rain = 0
KSC1 200535Z 10002KT 23/16 A2983 RMK A01 T02260157  RH  065%=      5-min Rain = 0
KSC1 200536Z 10002KT 23/16 A2983 RMK A01 T02270160  RH  066%=      5-min Rain = 0
KSC1 200537Z 09002KT 23/16 A2983 RMK A01 T02260162  RH  067%=      5-min Rain = 0
KSC1 200538Z 09003KT 23/16 A2983 RMK A01 T02250161  RH  067%=      5-min Rain = 0
KSC1 200539Z 08004KT 22/16 A2983 RMK A01 T02230160  RH  067%=      5-min Rain = 0
KSC1 200540Z 08003KT 22/16 A2983 RMK A01 T02220160  RH  068%=      5-min Rain = 0
KSC1 200541Z 08004KT 22/16 A2984 RMK A01 T02220159  RH  067%=      5-min Rain = 0
KSC1 200542Z 07003KT 22/16 A2984 RMK A01 T02230159  RH  067%=      5-min Rain = 0
KSC1 200543Z 06003KT 22/16 A2984 RMK A01 T02230158  RH  067%=      5-min Rain = 0
KSC1 200544Z 06003KT 22/16 A2984 RMK A01 T02240159  RH  066%=      5-min Rain = 0
KSC1 200545Z 06003KT 23/16 A2984 RMK A01 T02250159  RH  066%=      5-min Rain = 0
KSC1 200546Z 06003KT 23/16 A2984 RMK A01 T02260159  RH  066%=      5-min Rain = 0
KSC1 200547Z 06003KT 23/16 A2984 RMK A01 T02260159  RH  066%=      5-min Rain = 0
KSC1 200548Z 04004KT 23/16 A2984 RMK A01 T02270159  RH  065%=      5-min Rain = 0
KSC1 200549Z 05004KT 23/16 A2984 RMK A01 T02280159  RH  065%=      5-min Rain = 0
KSC1 200550Z 04004KT 23/16 A2984 RMK A01 T02280159  RH  065%=      5-min Rain = 0
KSC1 200551Z 04004KT 23/16 A2984 RMK A01 T02280159  RH  065%=      5-min Rain = 0
KSC1 200552Z 03004KT 23/16 A2984 RMK A01 T02270158  RH  065%=      5-min Rain = 0
KSC1 200553Z 03005KT 23/16 A2984 RMK A01 T02270158  RH  065%=      5-min Rain = 0
KSC1 200554Z 03004KT 23/16 A2984 RMK A01 T02260158  RH  065%=      5-min Rain = 0
KSC1 200555Z 03004KT 23/16 A2984 RMK A01 T02260158  RH  065%=      5-min Rain = 0
KSC1 200556Z 03004KT 23/16 A2984 RMK A01 T02250157  RH  065%=      5-min Rain = 0
KSC1 200557Z 03003KT 23/16 A2984 RMK A01 T02250158  RH  066%=      5-min Rain = 0
KSC1 200558Z 03003KT 22/16 A2984 RMK A01 T02240157  RH  066%=      5-min Rain = 0
KSC1 200559Z 03004KT 22/16 A2984 RMK A01 T02240157  RH  066%=      5-min Rain = 0
KSC1 200600Z 03004KT 22/16 A2984 RMK A01 T02240157  RH  066%=      5-min Rain = 0
KSC1 200601Z 04004KT 22/16 A2984 RMK A01 T02240157  RH  066%=      5-min Rain = 0
KSC1 200602Z 04005KT 22/16 A2984 RMK A01 T02240156  RH  066%=      5-min Rain = 0
KSC1 200603Z 04004KT 22/16 A2984 RMK A01 T02240157  RH  066%=      5-min Rain = 0
KSC1 200604Z 05003KT 22/16 A2984 RMK A01 T02230157  RH  066%=      5-min Rain = 0
KSC1 200605Z 05004KT 22/16 A2984 RMK A01 T02230157  RH  066%=      5-min Rain = 0
KSC1 200606Z 05004KT 22/16 A2984 RMK A01 T02230156  RH  066%=      5-min Rain = 0
KSC1 200607Z 06004KT 22/16 A2984 RMK A01 T02220157  RH  066%=      5-min Rain = 0
KSC1 200608Z 05004KT 22/16 A2984 RMK A01 T02220156  RH  067%=      5-min Rain = 0
KSC1 200609Z 06004KT 22/16 A2984 RMK A01 T02210156  RH  067%=      5-min Rain = 0
KSC1 200610Z 06004KT 22/16 A2984 RMK A01 T02200156  RH  067%=      5-min Rain = 0
KSC1 200611Z 07004KT 22/16 A2984 RMK A01 T02200156  RH  067%=      5-min Rain = 0
KSC1 200612Z 07004KT 22/16 A2984 RMK A01 T02200156  RH  067%=      5-min Rain = 0
KSC1 200613Z 08004KT 22/16 A2984 RMK A01 T02200156  RH  067%=      5-min Rain = 0
KSC1 200614Z 08004KT 22/16 A2983 RMK A01 T02190156  RH  067%=      5-min Rain = 0
KSC1 200615Z 08004KT 22/16 A2983 RMK A01 T02180156  RH  068%=      5-min Rain = 0
KSC1 200616Z 08004KT 22/16 A2983 RMK A01 T02170156  RH  068%=      5-min Rain = 0
KSC1 200617Z 09003KT 22/16 A2983 RMK A01 T02170157  RH  069%=      5-min Rain = 0
KSC1 200618Z 10003KT 22/16 A2983 RMK A01 T02160157  RH  069%=      5-min Rain = 0
KSC1 200619Z 10003KT 22/16 A2983 RMK A01 T02150157  RH  070%=      5-min Rain = 0
KSC1 200620Z 10003KT 21/16 A2983 RMK A01 T02140157  RH  070%=      5-min Rain = 0
KSC1 200621Z 09003KT 21/16 A2983 RMK A01 T02140158  RH  070%=      5-min Rain = 0
KSC1 200622Z 09004KT 21/16 A2983 RMK A01 T02130158  RH  071%=      5-min Rain = 0
KSC1 200623Z 08004KT 21/16 A2983 RMK A01 T02130157  RH  071%=      5-min Rain = 0
KSC1 200624Z 09004KT 21/16 A2983 RMK A01 T02130157  RH  070%=      5-min Rain = 0
KSC1 200625Z 09005KT 21/16 A2983 RMK A01 T02140157  RH  070%=      5-min Rain = 0
KSC1 200626Z 09004KT 21/16 A2983 RMK A01 T02140158  RH  070%=      5-min Rain = 0
KSC1 200627Z 09004KT 21/16 A2983 RMK A01 T02140158  RH  070%=      5-min Rain = 0
KSC1 200628Z 09004KT 21/16 A2983 RMK A01 T02140158  RH  070%=      5-min Rain = 0
KSC1 200629Z 09004KT 21/16 A2983 RMK A01 T02140158  RH  070%=      5-min Rain = 0
KSC1 200630Z 09003KT 21/16 A2983 RMK A01 T02140158  RH  071%=      5-min Rain = 0
KSC1 200631Z 08003KT 21/16 A2983 RMK A01 T02140158  RH  071%=      5-min Rain = 0
KSC1 200632Z 08003KT 21/16 A2983 RMK A01 T02130158  RH  071%=      5-min Rain = 0
KSC1 200633Z 08003KT 21/16 A2983 RMK A01 T02130158  RH  071%=      5-min Rain = 0
KSC1 200634Z 08003KT 21/16 A2983 RMK A01 T02130157  RH  070%=      5-min Rain = 0
KSC1 200635Z 07003KT 21/16 A2983 RMK A01 T02140157  RH  070%=      5-min Rain = 0
KSC1 200636Z 06004KT 21/16 A2983 RMK A01 T02140157  RH  070%=      5-min Rain = 0
KSC1 200637Z 07004KT 21/16 A2983 RMK A01 T02140157  RH  070%=      5-min Rain = 0
KSC1 200638Z 06004KT 21/16 A2983 RMK A01 T02140157  RH  070%=      5-min Rain = 0
KSC1 200639Z 06004KT 21/16 A2983 RMK A01 T02140157  RH  070%=      5-min Rain = 0
KSC1 200640Z 06004KT 21/16 A2983 RMK A01 T02140158  RH  070%=      5-min Rain = 0
KSC1 200641Z 06004KT 21/16 A2983 RMK A01 T02140157  RH  070%=      5-min Rain = 0
KSC1 200642Z 06004KT 21/16 A2983 RMK A01 T02140157  RH  070%=      5-min Rain = 0
KSC1 200643Z 06004KT 21/16 A2983 RMK A01 T02140157  RH  070%=      5-min Rain = 0
KSC1 200644Z 06004KT 22/16 A2982 RMK A01 T02150158  RH  070%=      5-min Rain = 0
KSC1 200645Z 06004KT 21/16 A2982 RMK A01 T02140158  RH  070%=      5-min Rain = 0
KSC1 200646Z 05004KT 21/16 A2982 RMK A01 T02140158  RH  070%=      5-min Rain = 0
KSC1 200647Z 05004KT 21/16 A2982 RMK A01 T02140158  RH  070%=      5-min Rain = 0
KSC1 200648Z 05003KT 21/16 A2982 RMK A01 T02140158  RH  070%=      5-min Rain = 0
KSC1 200649Z 05003KT 21/16 A2982 RMK A01 T02140158  RH  070%=      5-min Rain = 0
KSC1 200650Z 05002KT 21/16 A2982 RMK A01 T02140158  RH  070%=      5-min Rain = 0
KSC1 200651Z 05002KT 21/16 A2982 RMK A01 T02140158  RH  071%=      5-min Rain = 0
KSC1 200652Z 05003KT 21/16 A2982 RMK A01 T02130159  RH  071%=      5-min Rain = 0
KSC1 200653Z 05003KT 21/16 A2982 RMK A01 T02130158  RH  071%=      5-min Rain = 0
KSC1 200654Z 06003KT 21/16 A2982 RMK A01 T02130159  RH  072%=      5-min Rain = 0
KSC1 200655Z 06003KT 21/16 A2982 RMK A01 T02120159  RH  072%=      5-min Rain = 0
KSC1 200656Z 06003KT 21/16 A2982 RMK A01 T02120159  RH  072%=      5-min Rain = 0
KSC1 200657Z 06003KT 21/16 A2982 RMK A01 T02120160  RH  072%=      5-min Rain = 0
KSC1 200658Z 07003KT 21/16 A2982 RMK A01 T02120160  RH  072%=      5-min Rain = 0
KSC1 200659Z 07004KT 21/16 A2982 RMK A01 T02120160  RH  072%=      5-min Rain = 0
KSC1 200700Z 07004KT 21/16 A2982 RMK A01 T02110161  RH  073%=      5-min Rain = 0
KSC1 200701Z 06004KT 21/16 A2982 RMK A01 T02110161  RH  073%=      5-min Rain = 0
KSC1 200702Z 06004KT 21/16 A2982 RMK A01 T02110161  RH  073%=      5-min Rain = 0
KSC1 200703Z 05005KT 21/16 A2982 RMK A01 T02110160  RH  073%=      5-min Rain = 0
KSC1 200704Z 05005KT 21/16 A2982 RMK A01 T02110160  RH  073%=      5-min Rain = 0
KSC1 200705Z 06005KT 21/16 A2982 RMK A01 T02110161  RH  073%=      5-min Rain = 0
KSC1 200706Z 06006KT 21/16 A2982 RMK A01 T02110161  RH  073%=      5-min Rain = 0
KSC1 200707Z 06006KT 21/16 A2982 RMK A01 T02100161  RH  073%=      5-min Rain = 0
KSC1 200708Z 06005KT 21/16 A2982 RMK A01 T02100161  RH  073%=      5-min Rain = 0
KSC1 200709Z 06005KT 21/16 A2982 RMK A01 T02100161  RH  073%=      5-min Rain = 0
KSC1 200710Z 06004KT 21/16 A2982 RMK A01 T02100160  RH  073%=      5-min Rain = 0
KSC1 200711Z 08003KT 21/16 A2982 RMK A01 T02100161  RH  073%=      5-min Rain = 0
KSC1 200712Z 05005KT 21/16 A2982 RMK A01 T02100161  RH  074%=      5-min Rain = 0
KSC1 200713Z 06005KT 21/16 A2982 RMK A01 T02100162  RH  074%=      5-min Rain = 0
KSC1 200714Z 06004KT 21/16 A2982 RMK A01 T02100162  RH  074%=      5-min Rain = 0
KSC1 200715Z 05005KT 21/16 A2982 RMK A01 T02100162  RH  074%=      5-min Rain = 0
KSC1 200716Z 05005KT 21/16 A2982 RMK A01 T02100163  RH  074%=      5-min Rain = 0
KSC1 200717Z 05004KT 21/16 A2982 RMK A01 T02100163  RH  074%=      5-min Rain = 0
KSC1 200718Z 06005KT 21/16 A2982 RMK A01 T02100163  RH  074%=      5-min Rain = 0
KSC1 200719Z 06004KT 21/16 A2982 RMK A01 T02090163  RH  075%=      5-min Rain = 0
KSC1 200720Z 06004KT 21/16 A2982 RMK A01 T02090163  RH  075%=      5-min Rain = 0
KSC1 200721Z 06003KT 21/16 A2982 RMK A01 T02090163  RH  075%=      5-min Rain = 0
KSC1 200722Z 06003KT 21/16 A2982 RMK A01 T02090164  RH  075%=      5-min Rain = 0
KSC1 200723Z 05003KT 21/16 A2982 RMK A01 T02080163  RH  076%=      5-min Rain = 0
KSC1 200724Z 06003KT 21/16 A2982 RMK A01 T02080164  RH  076%=      5-min Rain = 0
KSC1 200725Z 06003KT 21/16 A2982 RMK A01 T02070163  RH  076%=      5-min Rain = 0
KSC1 200726Z 05003KT 21/16 A2982 RMK A01 T02070163  RH  076%=      5-min Rain = 0
KSC1 200727Z 05003KT 21/16 A2982 RMK A01 T02070164  RH  076%=      5-min Rain = 0
KSC1 200728Z 05003KT 21/16 A2982 RMK A01 T02070164  RH  076%=      5-min Rain = 0
KSC1 200729Z 05003KT 21/16 A2982 RMK A01 T02060164  RH  077%=      5-min Rain = 0
KSC1 200730Z 06004KT 21/16 A2982 RMK A01 T02060164  RH  077%=      5-min Rain = 0
KSC1 200731Z 07003KT 21/17 A2982 RMK A01 T02060165  RH  077%=      5-min Rain = 0
KSC1 200732Z 07004KT 21/16 A2982 RMK A01 T02050164  RH  077%=      5-min Rain = 0
KSC1 200733Z 07004KT 21/16 A2982 RMK A01 T02060164  RH  077%=      5-min Rain = 0
KSC1 200734Z 07005KT 21/16 A2982 RMK A01 T02060164  RH  077%=      5-min Rain = 0
KSC1 200735Z 07005KT 21/16 A2982 RMK A01 T02060164  RH  077%=      5-min Rain = 0
KSC1 200736Z 08005KT 21/16 A2982 RMK A01 T02060164  RH  077%=      5-min Rain = 0
KSC1 200737Z 08005KT 21/17 A2982 RMK A01 T02060165  RH  077%=      5-min Rain = 0
KSC1 200738Z 08005KT 21/17 A2982 RMK A01 T02050165  RH  078%=      5-min Rain = 0
KSC1 200739Z 08005KT 20/17 A2982 RMK A01 T02040165  RH  078%=      5-min Rain = 0
KSC1 200740Z 08004KT 20/17 A2982 RMK A01 T02040165  RH  078%=      5-min Rain = 0
KSC1 200741Z 08005KT 20/17 A2982 RMK A01 T02040166  RH  078%=      5-min Rain = 0
KSC1 200742Z 07004KT 20/17 A2982 RMK A01 T02040165  RH  078%=      5-min Rain = 0
KSC1 200743Z 07004KT 20/17 A2982 RMK A01 T02040165  RH  078%=      5-min Rain = 0
KSC1 200744Z 07004KT 20/17 A2982 RMK A01 T02040165  RH  078%=      5-min Rain = 0
KSC1 200745Z 07004KT 20/17 A2981 RMK A01 T02040166  RH  078%=      5-min Rain = 0
KSC1 200746Z 06004KT 20/17 A2982 RMK A01 T02040166  RH  078%=      5-min Rain = 0
KSC1 200747Z 05004KT 20/17 A2982 RMK A01 T02040166  RH  079%=      5-min Rain = 0
KSC1 200748Z 05004KT 20/17 A2982 RMK A01 T02040167  RH  079%=      5-min Rain = 0
KSC1 200749Z 04004KT 20/17 A2982 RMK A01 T02040167  RH  079%=      5-min Rain = 0
KSC1 200750Z 03004KT 20/17 A2982 RMK A01 T02040167  RH  079%=      5-min Rain = 0
KSC1 200751Z 02004KT 20/17 A2982 RMK A01 T02040167  RH  079%=      5-min Rain = 0
KSC1 200752Z 01004KT 20/17 A2982 RMK A01 T02040167  RH  079%=      5-min Rain = 0
KSC1 200753Z 02004KT 20/17 A2982 RMK A01 T02040167  RH  079%=      5-min Rain = 0
KSC1 200754Z 02004KT 20/17 A2981 RMK A01 T02040167  RH  079%=      5-min Rain = 0
KSC1 200755Z 03004KT 20/17 A2981 RMK A01 T02040167  RH  079%=      5-min Rain = 0
KSC1 200756Z 03004KT 20/17 A2981 RMK A01 T02040167  RH  079%=      5-min Rain = 0
KSC1 200757Z 03004KT 20/17 A2981 RMK A01 T02040167  RH  079%=      5-min Rain = 0
KSC1 200758Z 04003KT 20/17 A2981 RMK A01 T02040167  RH  079%=      5-min Rain = 0
KSC1 200759Z 05003KT 20/17 A2981 RMK A01 T02040167  RH  080%=      5-min Rain = 0
KSC1 200800Z 05003KT 20/17 A2981 RMK A01 T02040168  RH  080%=      5-min Rain = 0
KSC1 200801Z 05003KT 20/17 A2981 RMK A01 T02040168  RH  079%=      5-min Rain = 0
KSC1 200802Z 06002KT 21/17 A2981 RMK A01 T02050168  RH  079%=      5-min Rain = 0
KSC1 200803Z 07003KT 21/17 A2981 RMK A01 T02050168  RH  079%=      5-min Rain = 0
KSC1 200804Z 08004KT 20/17 A2981 RMK A01 T02040168  RH  079%=      5-min Rain = 0
KSC1 200805Z 07004KT 20/17 A2981 RMK A01 T02040168  RH  079%=      5-min Rain = 0
KSC1 200806Z 06004KT 20/17 A2981 RMK A01 T02040168  RH  080%=      5-min Rain = 0
KSC1 200807Z 06004KT 20/17 A2981 RMK A01 T02040167  RH  079%=      5-min Rain = 0
KSC1 200808Z 07004KT 20/17 A2981 RMK A01 T02040167  RH  079%=      5-min Rain = 0
KSC1 200809Z 06004KT 20/17 A2981 RMK A01 T02040167  RH  079%=      5-min Rain = 0
KSC1 200810Z 06004KT 20/17 A2981 RMK A01 T02030167  RH  080%=      5-min Rain = 0
KSC1 200811Z 07005KT 20/17 A2981 RMK A01 T02020166  RH  080%=      5-min Rain = 0
KSC1 200812Z 06005KT 20/17 A2982 RMK A01 T02010167  RH  081%=      5-min Rain = 0
KSC1 200813Z 06004KT 20/17 A2982 RMK A01 T02010167  RH  081%=      5-min Rain = 0
KSC1 200814Z 06005KT 20/17 A2982 RMK A01 T02010167  RH  081%=      5-min Rain = 0
KSC1 200815Z 07005KT 20/17 A2982 RMK A01 T02020168  RH  081%=      5-min Rain = 0
KSC1 200816Z 07005KT 20/17 A2982 RMK A01 T02010168  RH  081%=      5-min Rain = 0
KSC1 200817Z 07004KT 20/17 A2981 RMK A01 T02010168  RH  081%=      5-min Rain = 0
KSC1 200818Z 07003KT 20/17 A2982 RMK A01 T02010168  RH  081%=      5-min Rain = 0
KSC1 200819Z 07003KT 20/17 A2981 RMK A01 T02000168  RH  082%=      5-min Rain = 0
KSC1 200820Z 06003KT 20/17 A2981 RMK A01 T02000168  RH  082%=      5-min Rain = 0
KSC1 200821Z 07003KT 20/17 A2981 RMK A01 T02000168  RH  082%=      5-min Rain = 0
KSC1 200822Z 06004KT 20/17 A2981 RMK A01 T02000169  RH  082%=      5-min Rain = 0
KSC1 200823Z 06004KT 20/17 A2981 RMK A01 T02000169  RH  082%=      5-min Rain = 0
KSC1 200824Z 06003KT 20/17 A2981 RMK A01 T02000169  RH  082%=      5-min Rain = 0
KSC1 200825Z 06002KT 20/17 A2981 RMK A01 T02000169  RH  082%=      5-min Rain = 0
KSC1 200826Z 04003KT 20/17 A2981 RMK A01 T02000169  RH  082%=      5-min Rain = 0
KSC1 200827Z 04002KT 20/17 A2982 RMK A01 T02000169  RH  083%=      5-min Rain = 0
KSC1 200828Z 04003KT 20/17 A2982 RMK A01 T01990169  RH  083%=      5-min Rain = 0
KSC1 200829Z 04004KT 20/17 A2981 RMK A01 T02000170  RH  083%=      5-min Rain = 0
KSC1 200830Z 04003KT 20/17 A2982 RMK A01 T02020170  RH  082%=      5-min Rain = 0
KSC1 200831Z 04003KT 20/17 A2982 RMK A01 T02030169  RH  081%=      5-min Rain = 0
KSC1 200832Z 05003KT 20/17 A2982 RMK A01 T02040170  RH  081%=      5-min Rain = 0
KSC1 200833Z 04004KT 20/17 A2982 RMK A01 T02040170  RH  081%=      5-min Rain = 0
KSC1 200834Z 04004KT 20/17 A2982 RMK A01 T02040170  RH  081%=      5-min Rain = 0
KSC1 200835Z 04004KT 20/17 A2982 RMK A01 T02040170  RH  080%=      5-min Rain = 0
KSC1 200836Z 04003KT 21/17 A2982 RMK A01 T02050170  RH  080%=      5-min Rain = 0
KSC1 200837Z 05003KT 21/17 A2982 RMK A01 T02050170  RH  080%=      5-min Rain = 0
KSC1 200838Z 05005KT 21/17 A2982 RMK A01 T02050171  RH  081%=      5-min Rain = 0
KSC1 200839Z 05005KT 20/17 A2982 RMK A01 T02040171  RH  081%=      5-min Rain = 0
KSC1 200840Z 05005KT 20/17 A2982 RMK A01 T02040172  RH  081%=      5-min Rain = 0
KSC1 200841Z 05005KT 20/17 A2982 RMK A01 T02040172  RH  082%=      5-min Rain = 0
KSC1 200842Z 05004KT 20/17 A2982 RMK A01 T02040172  RH  082%=      5-min Rain = 0
KSC1 200843Z 05004KT 20/17 A2982 RMK A01 T02040172  RH  082%=      5-min Rain = 0
KSC1 200844Z 05005KT 20/17 A2982 RMK A01 T02040172  RH  082%=      5-min Rain = 0
KSC1 200845Z 05005KT 21/17 A2982 RMK A01 T02050173  RH  082%=      5-min Rain = 0
KSC1 200846Z 05004KT 21/17 A2982 RMK A01 T02050173  RH  082%=      5-min Rain = 0
KSC1 200847Z 05004KT 21/17 A2982 RMK A01 T02050173  RH  082%=      5-min Rain = 0
KSC1 200848Z 06003KT 21/17 A2982 RMK A01 T02050172  RH  081%=      5-min Rain = 0
KSC1 200849Z 06004KT 21/17 A2982 RMK A01 T02050172  RH  081%=      5-min Rain = 0
KSC1 200850Z 07004KT 21/17 A2982 RMK A01 T02050173  RH  081%=      5-min Rain = 0
KSC1 200851Z 07004KT 21/17 A2982 RMK A01 T02050172  RH  081%=      5-min Rain = 0
KSC1 200852Z 08003KT 21/17 A2982 RMK A01 T02050172  RH  081%=      5-min Rain = 0
KSC1 200853Z 07003KT 21/17 A2982 RMK A01 T02050172  RH  082%=      5-min Rain = 0
KSC1 200854Z 08003KT 20/17 A2982 RMK A01 T02040172  RH  082%=      5-min Rain = 0
KSC1 200855Z 08004KT 20/17 A2982 RMK A01 T02030172  RH  082%=      5-min Rain = 0
KSC1 200856Z 07003KT 20/17 A2982 RMK A01 T02030172  RH  082%=      5-min Rain = 0
KSC1 200857Z 07003KT 20/17 A2982 RMK A01 T02030172  RH  083%=      5-min Rain = 0
KSC1 200858Z 06003KT 20/17 A2982 RMK A01 T02020172  RH  083%=      5-min Rain = 0
KSC1 200859Z 05003KT 20/17 A2982 RMK A01 T02020172  RH  083%=      5-min Rain = 0
KSC1 200900Z 05003KT 20/17 A2982 RMK A01 T02030173  RH  082%=      5-min Rain = 0
KSC1 200901Z 06003KT 20/17 A2982 RMK A01 T02030172  RH  082%=      5-min Rain = 0
KSC1 200902Z 04003KT 20/17 A2982 RMK A01 T02040172  RH  082%=      5-min Rain = 0
KSC1 200903Z 05003KT 20/17 A2982 RMK A01 T02040172  RH  082%=      5-min Rain = 0
KSC1 200904Z 05002KT 20/17 A2982 RMK A01 T02030172  RH  082%=      5-min Rain = 0
KSC1 200905Z 06002KT 20/17 A2982 RMK A01 T02030172  RH  083%=      5-min Rain = 0
KSC1 200906Z 06003KT 20/17 A2982 RMK A01 T02030173  RH  083%=      5-min Rain = 0
KSC1 200907Z 04004KT 20/17 A2982 RMK A01 T02030173  RH  083%=      5-min Rain = 0
KSC1 200908Z 06003KT 20/17 A2982 RMK A01 T02020172  RH  083%=      5-min Rain = 0
KSC1 200909Z 09003KT 20/17 A2982 RMK A01 T02020172  RH  083%=      5-min Rain = 0
KSC1 200910Z 09002KT 20/17 A2982 RMK A01 T02020172  RH  083%=      5-min Rain = 0
KSC1 200911Z 09003KT 20/17 A2982 RMK A01 T02000172  RH  084%=      5-min Rain = 0
KSC1 200912Z 08004KT 20/17 A2982 RMK A01 T01990172  RH  085%=      5-min Rain = 0
KSC1 200913Z 07003KT 20/17 A2982 RMK A01 T01980172  RH  085%=      5-min Rain = 0
KSC1 200914Z 08002KT 20/17 A2982 RMK A01 T01970173  RH  086%=      5-min Rain = 0
KSC1 200915Z 10003KT 20/17 A2982 RMK A01 T01970174  RH  087%=      5-min Rain = 0
KSC1 200916Z 12004KT 20/18 A2982 RMK A01 T01970177  RH  088%=      5-min Rain = 0
KSC1 200917Z 15007KT 20/18 A2982 RMK A01 T02010181  RH  088%=      5-min Rain = 0
KSC1 200918Z 14005KT 21/18 A2981 RMK A01 T02080182  RH  085%=      5-min Rain = 0
KSC1 200919Z 11005KT 21/18 A2981 RMK A01 T02120180  RH  082%=      5-min Rain = 0
KSC1 200920Z 07003KT 21/18 A2982 RMK A01 T02130178  RH  081%=      5-min Rain = 0
KSC1 200921Z 08002KT 21/18 A2982 RMK A01 T02120176  RH  080%=      5-min Rain = 0
KSC1 200922Z 07001KT 21/18 A2981 RMK A01 T02100175  RH  081%=      5-min Rain = 0
KSC1 200923Z 04001KT 21/18 A2981 RMK A01 T02090175  RH  081%=      5-min Rain = 0
KSC1 200924Z 33001KT 21/18 A2981 RMK A01 T02070175  RH  082%=      5-min Rain = 0
KSC1 200925Z 32002KT 21/18 A2981 RMK A01 T02070177  RH  083%=      5-min Rain = 0
KSC1 200926Z 27002KT 21/18 A2981 RMK A01 T02070176  RH  083%=      5-min Rain = 0
KSC1 200927Z 24001KT 21/18 A2981 RMK A01 T02050175  RH  083%=      5-min Rain = 0
KSC1 200928Z 18001KT 21/18 A2981 RMK A01 T02050176  RH  084%=      5-min Rain = 0
KSC1 200929Z 17004G9KT 20/18 A2981 RMK A01 T02040176  RH  084%=      5-min Rain = 0
KSC1 200930Z 19005KT 21/18 A2981 RMK A01 T02050181  RH  086%=      5-min Rain = 0
KSC1 200931Z 20002KT 21/18 A2981 RMK A01 T02090179  RH  083%=      5-min Rain = 0
KSC1 200932Z 23002KT 21/18 A2981 RMK A01 T02100177  RH  081%=      5-min Rain = 0
KSC1 200933Z 20003KT 21/18 A2981 RMK A01 T02090177  RH  082%=      5-min Rain = 0
KSC1 200934Z 21003KT 21/18 A2981 RMK A01 T02100179  RH  082%=      5-min Rain = 0
KSC1 200935Z 19002KT 21/18 A2981 RMK A01 T02130179  RH  081%=      5-min Rain = 0
KSC1 200936Z 21003KT 22/18 A2981 RMK A01 T02150179  RH  080%=      5-min Rain = 0
KSC1 200937Z 20001KT 22/18 A2981 RMK A01 T02170179  RH  079%=      5-min Rain = 0
KSC1 200938Z 19001KT 22/18 A2981 RMK A01 T02180178  RH  078%=      5-min Rain = 0
KSC1 200939Z 15002KT 22/18 A2981 RMK A01 T02170177  RH  078%=      5-min Rain = 0
KSC1 200940Z 16000KT 22/18 A2981 RMK A01 T02160176  RH  078%=      5-min Rain = 0
KSC1 200941Z 15002KT 22/18 A2981 RMK A01 T02150176  RH  079%=      5-min Rain = 0
KSC1 200942Z 14001KT 21/18 A2981 RMK A01 T02130177  RH  080%=      5-min Rain = 0
KSC1 200943Z 16002KT 21/18 A2981 RMK A01 T02120178  RH  081%=      5-min Rain = 0
KSC1 200944Z 14002KT 21/18 A2981 RMK A01 T02120178  RH  081%=      5-min Rain = 0
KSC1 200945Z 12002KT 21/18 A2981 RMK A01 T02120177  RH  080%=      5-min Rain = 0
KSC1 200946Z 09002KT 21/18 A2981 RMK A01 T02120177  RH  080%=      5-min Rain = 0
KSC1 200947Z 07003KT 21/18 A2981 RMK A01 T02110177  RH  081%=      5-min Rain = 0
KSC1 200948Z 06005KT 21/18 A2981 RMK A01 T02100177  RH  081%=      5-min Rain = 0
KSC1 200949Z 06005KT 21/18 A2981 RMK A01 T02090177  RH  082%=      5-min Rain = 0
KSC1 200950Z 06005KT 21/18 A2981 RMK A01 T02090177  RH  082%=      5-min Rain = 0
KSC1 200951Z 07005KT 21/18 A2981 RMK A01 T02080177  RH  082%=      5-min Rain = 0
KSC1 200952Z 07004KT 21/18 A2981 RMK A01 T02080178  RH  083%=      5-min Rain = 0
KSC1 200953Z 07004KT 21/18 A2982 RMK A01 T02080178  RH  083%=      5-min Rain = 0
KSC1 200954Z 07004KT 21/18 A2982 RMK A01 T02070178  RH  083%=      5-min Rain = 0
KSC1 200955Z 07003KT 21/18 A2982 RMK A01 T02070178  RH  084%=      5-min Rain = 0
KSC1 200956Z 07003KT 21/18 A2982 RMK A01 T02060178  RH  084%=      5-min Rain = 0
KSC1 200957Z 06003KT 21/18 A2982 RMK A01 T02060178  RH  084%=      5-min Rain = 0
KSC1 200958Z 06004KT 21/18 A2982 RMK A01 T02050179  RH  085%=      5-min Rain = 0
KSC1 200959Z 06004KT 21/18 A2982 RMK A01 T02050180  RH  085%=      5-min Rain = 0
KSC1 201000Z 06004KT 21/18 A2982 RMK A01 T02050179  RH  085%=      5-min Rain = 0
KSC1 201001Z 05005KT 21/18 A2982 RMK A01 T02050179  RH  085%=      5-min Rain = 0
KSC1 201002Z 05004KT 21/18 A2982 RMK A01 T02050178  RH  085%=      5-min Rain = 0
KSC1 201003Z 05004KT 21/18 A2982 RMK A01 T02050179  RH  085%=      5-min Rain = 0
KSC1 201004Z 05004KT 21/18 A2982 RMK A01 T02050180  RH  085%=      5-min Rain = 0
KSC1 201005Z 05004KT 21/18 A2982 RMK A01 T02050180  RH  086%=      5-min Rain = 0
KSC1 201006Z 06004KT 21/18 A2982 RMK A01 T02050180  RH  085%=      5-min Rain = 0
KSC1 201007Z 06004KT 21/18 A2982 RMK A01 T02050180  RH  085%=      5-min Rain = 0
KSC1 201008Z 05004KT 20/18 A2982 RMK A01 T02040180  RH  086%=      5-min Rain = 0
KSC1 201009Z 06004KT 20/18 A2982 RMK A01 T02040179  RH  086%=      5-min Rain = 0
KSC1 201010Z 06004KT 20/18 A2982 RMK A01 T02040180  RH  086%=      5-min Rain = 0
KSC1 201011Z 06003KT 20/18 A2982 RMK A01 T02040181  RH  087%=      5-min Rain = 0
KSC1 201012Z 06004KT 20/18 A2982 RMK A01 T02040180  RH  086%=      5-min Rain = 0
KSC1 201013Z 07003KT 20/18 A2982 RMK A01 T02040180  RH  086%=      5-min Rain = 0
KSC1 201014Z 07003KT 20/18 A2982 RMK A01 T02040180  RH  086%=      5-min Rain = 0
KSC1 201015Z 08004KT 20/18 A2982 RMK A01 T02040179  RH  085%=      5-min Rain = 0
KSC1 201016Z 08004KT 20/18 A2982 RMK A01 T02040179  RH  085%=      5-min Rain = 0
KSC1 201017Z 08004KT 20/18 A2982 RMK A01 T02030179  RH  086%=      5-min Rain = 0
KSC1 201018Z 07005KT 20/18 A2982 RMK A01 T02020179  RH  086%=      5-min Rain = 0
KSC1 201019Z 07005KT 20/18 A2982 RMK A01 T02020179  RH  086%=      5-min Rain = 0
KSC1 201020Z 07004KT 20/18 A2982 RMK A01 T02020179  RH  087%=      5-min Rain = 0
KSC1 201021Z 07004KT 20/18 A2982 RMK A01 T02020179  RH  087%=      5-min Rain = 0
KSC1 201022Z 07003KT 20/18 A2982 RMK A01 T02010179  RH  087%=      5-min Rain = 0
KSC1 201023Z 06002KT 20/18 A2982 RMK A01 T02000178  RH  087%=      5-min Rain = 0
KSC1 201024Z 06002KT 20/18 A2982 RMK A01 T02000179  RH  088%=      5-min Rain = 0
KSC1 201025Z 07002KT 20/18 A2982 RMK A01 T01990179  RH  088%=      5-min Rain = 0
KSC1 201026Z 07001KT 20/18 A2982 RMK A01 T01990179  RH  088%=      5-min Rain = 0
KSC1 201027Z 08001KT 20/18 A2982 RMK A01 T01980179  RH  089%=      5-min Rain = 0
KSC1 201028Z 08001KT 20/18 A2982 RMK A01 T01980180  RH  089%=      5-min Rain = 0
KSC1 201029Z 08001KT 20/18 A2982 RMK A01 T01970180  RH  090%=      5-min Rain = 0
KSC1 201030Z 08001KT 20/18 A2982 RMK A01 T01970181  RH  091%=      5-min Rain = 0
KSC1 201031Z 08001KT 20/18 A2982 RMK A01 T01970183  RH  091%=      5-min Rain = 0
KSC1 201032Z 09001KT 20/18 A2982 RMK A01 T01970183  RH  092%=      5-min Rain = 0
KSC1 201033Z 10000KT 20/18 A2982 RMK A01 T01960183  RH  092%=      5-min Rain = 0
KSC1 201034Z 11000KT 20/18 A2982 RMK A01 T01960183  RH  092%=      5-min Rain = 0
KSC1 201035Z 00000KT 20/18 A2982 RMK A01 T01950184  RH  093%=      5-min Rain = 0
KSC1 201036Z 00000KT 19/18 A2982 RMK A01 T01940182  RH  093%=      5-min Rain = 0
KSC1 201037Z 18001KT 19/18 A2982 RMK A01 T01930179  RH  092%=      5-min Rain = 0
KSC1 201038Z 16001KT 19/18 A2982 RMK A01 T01910178  RH  093%=      5-min Rain = 0
KSC1 201039Z 15001KT 19/18 A2982 RMK A01 T01900179  RH  094%=      5-min Rain = 0
KSC1 201040Z 14001KT 19/18 A2982 RMK A01 T01880178  RH  094%=      5-min Rain = 0
KSC1 201041Z 12001KT 19/18 A2982 RMK A01 T01870181  RH  096%=      5-min Rain = 0
KSC1 201042Z 10002KT 19/18 A2982 RMK A01 T01860180  RH  096%=      5-min Rain = 0
KSC1 201043Z 08002KT 19/18 A2982 RMK A01 T01850177  RH  095%=      5-min Rain = 0
KSC1 201044Z 07003KT 18/18 A2982 RMK A01 T01830178  RH  097%=      5-min Rain = 0
KSC1 201045Z 07003KT 18/18 A2982 RMK A01 T01820179  RH  098%=      5-min Rain = 0
KSC1 201046Z 06004KT 18/18 A2982 RMK A01 T01820181  RH  099%=      5-min Rain = 0
KSC1 201047Z 07003KT 18/18 A2982 RMK A01 T01810182  RH  100%=      5-min Rain = 0
KSC1 201048Z 08003KT 18/18 A2982 RMK A01 T01810181  RH  100%=      5-min Rain = 0
KSC1 201049Z 07003KT 18/18 A2982 RMK A01 T01820182  RH  100%=      5-min Rain = 0
KSC1 201050Z 07002KT 18/18 A2982 RMK A01 T01820182  RH  100%=      5-min Rain = 0
KSC1 201051Z 08002KT 18/18 A2982 RMK A01 T01810182  RH  100%=      5-min Rain = 0
KSC1 201052Z 08002KT 18/18 A2982 RMK A01 T01810182  RH  100%=      5-min Rain = 0
KSC1 201053Z 09001KT 18/18 A2982 RMK A01 T01810181  RH  100%=      5-min Rain = 0
KSC1 201054Z 09000KT 18/18 A2982 RMK A01 T01810181  RH  100%=      5-min Rain = 0
KSC1 201055Z 15000KT 18/18 A2982 RMK A01 T01810181  RH  100%=      5-min Rain = 0
KSC1 201056Z 12002KT 18/18 A2982 RMK A01 T01810181  RH  100%=      5-min Rain = 0
KSC1 201057Z 13002KT 18/18 A2982 RMK A01 T01820182  RH  100%=      5-min Rain = 0
KSC1 201058Z 18002KT 18/18 A2982 RMK A01 T01820182  RH  100%=      5-min Rain = 0
KSC1 201059Z 18003KT 18/18 A2982 RMK A01 T01820182  RH  100%=      5-min Rain = 0
KSC1 201100Z 17003KT 18/18 A2982 RMK A01 T01820182  RH  100%=      5-min Rain = 0
KSC1 201101Z 16003KT 18/18 A2982 RMK A01 T01820182  RH  100%=      5-min Rain = 0
KSC1 201102Z 16003KT 18/18 A2982 RMK A01 T01810179  RH  099%=      5-min Rain = 0
KSC1 201103Z 17004KT 18/18 A2982 RMK A01 T01800179  RH  099%=      5-min Rain = 0
KSC1 201104Z 18005KT 18/18 A2982 RMK A01 T01800180  RH  100%=      5-min Rain = 0
KSC1 201105Z 18005KT 18/18 A2982 RMK A01 T01790179  RH  100%=      5-min Rain = 0
KSC1 201106Z 17005KT 18/18 A2982 RMK A01 T01790180  RH  100%=      5-min Rain = 0
KSC1 201107Z 17004KT 18/18 A2982 RMK A01 T01790180  RH  100%=      5-min Rain = 0
KSC1 201108Z 17004KT 18/18 A2982 RMK A01 T01790180  RH  100%=      5-min Rain = 0
KSC1 201109Z 18003KT 18/18 A2982 RMK A01 T01800180  RH  100%=      5-min Rain = 0
KSC1 201110Z 17003KT 18/18 A2982 RMK A01 T01800180  RH  100%=      5-min Rain = 0
KSC1 201111Z 15002KT 18/18 A2982 RMK A01 T01800180  RH  100%=      5-min Rain = 0
KSC1 201112Z 14001KT 18/18 A2982 RMK A01 T01800180  RH  100%=      5-min Rain = 0
KSC1 201113Z 03001KT 18/18 A2983 RMK A01 T01800180  RH  100%=      5-min Rain = 0
KSC1 201114Z 02004KT 18/18 A2983 RMK A01 T01790180  RH  100%=      5-min Rain = 0
KSC1 201115Z 02005KT 18/18 A2983 RMK A01 T01790179  RH  100%=      5-min Rain = 0
KSC1 201116Z 02004KT 18/18 A2983 RMK A01 T01790179  RH  100%=      5-min Rain = 0
KSC1 201117Z 02004KT 18/18 A2983 RMK A01 T01780178  RH  100%=      5-min Rain = 0
KSC1 201118Z 35003KT 18/18 A2983 RMK A01 T01780178  RH  100%=      5-min Rain = 0
KSC1 201119Z 34002KT 18/18 A2983 RMK A01 T01780178  RH  100%=      5-min Rain = 0
KSC1 201120Z 00001KT 18/18 A2983 RMK A01 T01780178  RH  100%=      5-min Rain = 0
KSC1 201121Z 05002KT 18/18 A2983 RMK A01 T01780178  RH  100%=      5-min Rain = 0
KSC1 201122Z 07001KT 18/18 A2983 RMK A01 T01790179  RH  100%=      5-min Rain = 0
KSC1 201123Z 08000KT 18/18 A2983 RMK A01 T01790179  RH  100%=      5-min Rain = 0
KSC1 201124Z 04000KT 18/18 A2983 RMK A01 T01800180  RH  100%=      5-min Rain = 0
KSC1 201125Z 05000KT 18/18 A2983 RMK A01 T01800180  RH  100%=      5-min Rain = 0
KSC1 201126Z 05001KT 18/18 A2983 RMK A01 T01800180  RH  100%=      5-min Rain = 0
KSC1 201127Z 07000KT 18/18 A2983 RMK A01 T01780178  RH  100%=      5-min Rain = 0
KSC1 201128Z 07000KT 18/18 A2983 RMK A01 T01770178  RH  100%=      5-min Rain = 0
KSC1 201129Z 07000KT 18/18 A2983 RMK A01 T01790179  RH  100%=      5-min Rain = 0
KSC1 201130Z 00000KT 18/18 A2983 RMK A01 T01780179  RH  100%=      5-min Rain = 0
KSC1 201131Z 16000KT 18/18 A2983 RMK A01 T01760176  RH  100%=      5-min Rain = 0
KSC1 201132Z 17000KT 18/18 A2983 RMK A01 T01750175  RH  100%=      5-min Rain = 0
KSC1 201133Z 20001KT 17/17 A2983 RMK A01 T01730173  RH  100%=      5-min Rain = 0
KSC1 201134Z 21001KT 17/17 A2983 RMK A01 T01720171  RH  100%=      5-min Rain = 0
KSC1 201135Z 20001KT 17/17 A2983 RMK A01 T01720172  RH  100%=      5-min Rain = 0
KSC1 201136Z 17001KT 18/18 A2983 RMK A01 T01750175  RH  100%=      5-min Rain = 0
KSC1 201137Z 18001KT 17/17 A2983 RMK A01 T01740174  RH  100%=      5-min Rain = 0
KSC1 201138Z 17001KT 17/17 A2983 RMK A01 T01710171  RH  100%=      5-min Rain = 0
KSC1 201139Z 14001KT 17/17 A2983 RMK A01 T01700170  RH  100%=      5-min Rain = 0
KSC1 201140Z 12001KT 17/17 A2983 RMK A01 T01690169  RH  100%=      5-min Rain = 0
KSC1 201141Z 11002KT 17/17 A2983 RMK A01 T01690169  RH  100%=      5-min Rain = 0
KSC1 201142Z 09002KT 17/17 A2983 RMK A01 T01700170  RH  100%=      5-min Rain = 0
KSC1 201143Z 07003KT 17/17 A2983 RMK A01 T01700171  RH  100%=      5-min Rain = 0
KSC1 201144Z 07004KT 17/17 A2983 RMK A01 T01690170  RH  100%=      5-min Rain = 0
KSC1 201145Z 06004KT 17/17 A2983 RMK A01 T01710171  RH  100%=      5-min Rain = 0
KSC1 201146Z 05004KT 17/17 A2983 RMK A01 T01720172  RH  100%=      5-min Rain = 0
KSC1 201147Z 04003KT 17/17 A2983 RMK A01 T01710171  RH  100%=      5-min Rain = 0
KSC1 201148Z 05004KT 17/17 A2983 RMK A01 T01710171  RH  100%=      5-min Rain = 0
KSC1 201149Z 06003KT 17/17 A2983 RMK A01 T01700170  RH  100%=      5-min Rain = 0
KSC1 201150Z 06004KT 17/17 A2983 RMK A01 T01700170  RH  100%=      5-min Rain = 0
KSC1 201151Z 05003KT 17/17 A2983 RMK A01 T01700171  RH  100%=      5-min Rain = 0
KSC1 201152Z 02002KT 17/17 A2983 RMK A01 T01700170  RH  100%=      5-min Rain = 0
KSC1 201153Z 04001KT 17/17 A2983 RMK A01 T01680169  RH  100%=      5-min Rain = 0
KSC1 201154Z 07001KT 17/17 A2983 RMK A01 T01700170  RH  100%=      5-min Rain = 0
KSC1 201155Z 07001KT 17/17 A2983 RMK A01 T01720172  RH  100%=      5-min Rain = 0
KSC1 201156Z 08000KT 17/17 A2983 RMK A01 T01730173  RH  100%=      5-min Rain = 0
KSC1 201157Z 00000KT 17/17 A2983 RMK A01 T01730174  RH  100%=      5-min Rain = 0
KSC1 201158Z 00000KT 17/17 A2983 RMK A01 T01740174  RH  100%=      5-min Rain = 0
KSC1 201159Z 00000KT 17/17 A2983 RMK A01 T01740174  RH  100%=      5-min Rain = 0
KSC1 201200Z 09000KT 17/17 A2983 RMK A01 T01740174  RH  100%=      5-min Rain = 0
KSC1 201201Z 09001KT 17/17 A2983 RMK A01 T01730173  RH  100%=      5-min Rain = 0
KSC1 201202Z 09000KT 17/17 A2983 RMK A01 T01720172  RH  100%=      5-min Rain = 0
KSC1 201203Z 10000KT 17/17 A2983 RMK A01 T01710171  RH  100%=      5-min Rain = 0
KSC1 201204Z 00000KT 17/17 A2983 RMK A01 T01690169  RH  100%=      5-min Rain = 0
KSC1 201205Z 00000KT 17/17 A2983 RMK A01 T01680168  RH  100%=      5-min Rain = 0
KSC1 201206Z 05000KT 17/17 A2983 RMK A01 T01670168  RH  100%=      5-min Rain = 0
KSC1 201207Z 05000KT 17/17 A2983 RMK A01 T01680168  RH  100%=      5-min Rain = 0
KSC1 201208Z 03001KT 17/17 A2983 RMK A01 T01690169  RH  100%=      5-min Rain = 0
KSC1 201209Z 03002KT 17/17 A2983 RMK A01 T01700170  RH  100%=      5-min Rain = 0
KSC1 201210Z 05002KT 17/17 A2983 RMK A01 T01700170  RH  100%=      5-min Rain = 0
KSC1 201211Z 06003KT 17/17 A2983 RMK A01 T01700170  RH  100%=      5-min Rain = 0
KSC1 201212Z 05002KT 17/17 A2983 RMK A01 T01710171  RH  100%=      5-min Rain = 0
KSC1 201213Z 05003KT 17/17 A2983 RMK A01 T01710172  RH  100%=      5-min Rain = 0
KSC1 201214Z 06003KT 17/17 A2984 RMK A01 T01710171  RH  100%=      5-min Rain = 0
KSC1 201215Z 06003KT 17/17 A2984 RMK A01 T01730173  RH  100%=      5-min Rain = 0
KSC1 201216Z 06003KT 18/18 A2984 RMK A01 T01760176  RH  100%=      5-min Rain = 0
KSC1 201217Z 06004KT 18/18 A2984 RMK A01 T01780178  RH  100%=      5-min Rain = 0
KSC1 201218Z 07002KT 18/18 A2984 RMK A01 T01800180  RH  100%=      5-min Rain = 0
KSC1 201219Z 07002KT 18/18 A2984 RMK A01 T01810181  RH  100%=      5-min Rain = 0
KSC1 201220Z 07001KT 18/18 A2984 RMK A01 T01820182  RH  100%=      5-min Rain = 0
KSC1 201221Z 07002KT 18/18 A2984 RMK A01 T01820182  RH  100%=      5-min Rain = 0
KSC1 201222Z 05002KT 18/18 A2984 RMK A01 T01830182  RH  099%=      5-min Rain = 0
KSC1 201223Z 05001KT 18/18 A2984 RMK A01 T01840181  RH  098%=      5-min Rain = 0
KSC1 201224Z 06000KT 18/18 A2984 RMK A01 T01840181  RH  098%=      5-min Rain = 0
KSC1 201225Z 14001KT 18/18 A2984 RMK A01 T01840181  RH  098%=      5-min Rain = 0
KSC1 201226Z 12000KT 19/18 A2984 RMK A01 T01850182  RH  098%=      5-min Rain = 0
KSC1 201227Z 19001KT 19/18 A2984 RMK A01 T01860183  RH  098%=      5-min Rain = 0
KSC1 201228Z 21000KT 19/18 A2984 RMK A01 T01870183  RH  098%=      5-min Rain = 0
KSC1 201229Z 00000KT 19/18 A2984 RMK A01 T01870183  RH  097%=      5-min Rain = 0
KSC1 201230Z 00000KT 19/18 A2984 RMK A01 T01880184  RH  097%=      5-min Rain = 0
KSC1 201231Z 00000KT 19/19 A2984 RMK A01 T01890185  RH  098%=      5-min Rain = 0
KSC1 201232Z 00000KT 19/19 A2984 RMK A01 T01900186  RH  098%=      5-min Rain = 0
KSC1 201233Z 00000KT 19/19 A2984 RMK A01 T01910187  RH  098%=      5-min Rain = 0
KSC1 201234Z 00000KT 19/19 A2984 RMK A01 T01920188  RH  098%=      5-min Rain = 0
KSC1 201235Z 00000KT 19/19 A2984 RMK A01 T01940190  RH  097%=      5-min Rain = 0
KSC1 201236Z 00000KT 20/19 A2984 RMK A01 T01970188  RH  095%=      5-min Rain = 0
KSC1 201237Z 01001KT 20/19 A2984 RMK A01 T01980186  RH  092%=      5-min Rain = 0
KSC1 201238Z 02001KT 20/18 A2984 RMK A01 T02000184  RH  091%=      5-min Rain = 0
KSC1 201239Z 01002KT 20/19 A2984 RMK A01 T02010187  RH  091%=      5-min Rain = 0
KSC1 201240Z 36002KT 20/19 A2984 RMK A01 T02020187  RH  091%=      5-min Rain = 0
KSC1 201241Z 35002KT 20/19 A2984 RMK A01 T02030186  RH  090%=      5-min Rain = 0
KSC1 201242Z 36001KT 20/19 A2984 RMK A01 T02030187  RH  091%=      5-min Rain = 0
KSC1 201243Z 02001KT 20/19 A2984 RMK A01 T02040188  RH  091%=      5-min Rain = 0
KSC1 201244Z 02001KT 21/19 A2984 RMK A01 T02050188  RH  090%=      5-min Rain = 0
KSC1 201245Z 00000KT 21/19 A2984 RMK A01 T02060189  RH  090%=      5-min Rain = 0
KSC1 201246Z 00000KT 21/19 A2984 RMK A01 T02080188  RH  089%=      5-min Rain = 0
KSC1 201247Z 00000KT 21/19 A2984 RMK A01 T02090186  RH  087%=      5-min Rain = 0
KSC1 201248Z 00000KT 21/19 A2984 RMK A01 T02110189  RH  087%=      5-min Rain = 0
KSC1 201249Z 04000KT 21/19 A2984 RMK A01 T02120192  RH  088%=      5-min Rain = 0
KSC1 201250Z 09000KT 21/19 A2984 RMK A01 T02140191  RH  087%=      5-min Rain = 0
KSC1 201251Z 09000KT 22/19 A2984 RMK A01 T02150193  RH  087%=      5-min Rain = 0
KSC1 201252Z 00000KT 22/19 A2984 RMK A01 T02170193  RH  086%=      5-min Rain = 0
KSC1 201253Z 04001KT 22/19 A2984 RMK A01 T02180191  RH  084%=      5-min Rain = 0
KSC1 201254Z 04001KT 22/19 A2984 RMK A01 T02200192  RH  084%=      5-min Rain = 0
KSC1 201255Z 00000KT 22/19 A2984 RMK A01 T02220194  RH  084%=      5-min Rain = 0
KSC1 201256Z 02001KT 22/19 A2984 RMK A01 T02240194  RH  083%=      5-min Rain = 0
KSC1 201257Z 02002KT 23/19 A2984 RMK A01 T02260193  RH  082%=      5-min Rain = 0
KSC1 201258Z 01002KT 23/19 A2984 RMK A01 T02270194  RH  081%=      5-min Rain = 0
KSC1 201259Z 02002KT 23/20 A2984 RMK A01 T02290196  RH  082%=      5-min Rain = 0
KSC1 201300Z 03002KT 23/19 A2984 RMK A01 T02290193  RH  080%=      5-min Rain = 0
KSC1 201301Z 02002KT 23/19 A2984 RMK A01 T02280193  RH  081%=      5-min Rain = 0
KSC1 201302Z 01002KT 23/19 A2984 RMK A01 T02280193  RH  081%=      5-min Rain = 0
KSC1 201303Z 01003KT 23/19 A2984 RMK A01 T02280192  RH  080%=      5-min Rain = 0
KSC1 201304Z 36003KT 23/19 A2984 RMK A01 T02270192  RH  080%=      5-min Rain = 0
KSC1 201305Z 00003KT 23/19 A2984 RMK A01 T02270192  RH  081%=      5-min Rain = 0
KSC1 201306Z 01002KT 23/19 A2984 RMK A01 T02260191  RH  081%=      5-min Rain = 0
KSC1 201307Z 34001KT 23/19 A2984 RMK A01 T02270192  RH  081%=      5-min Rain = 0
KSC1 201308Z 34001KT 23/19 A2984 RMK A01 T02280193  RH  081%=      5-min Rain = 0
KSC1 201309Z 23000KT 23/19 A2984 RMK A01 T02290193  RH  080%=      5-min Rain = 0
KSC1 201310Z 32002KT 23/19 A2984 RMK A01 T02320191  RH  078%=      5-min Rain = 0
KSC1 201311Z 00000KT 23/19 A2984 RMK A01 T02340193  RH  078%=      5-min Rain = 0
KSC1 201312Z 24001KT 24/19 A2984 RMK A01 T02370194  RH  077%=      5-min Rain = 0
KSC1 201313Z 25003KT 24/19 A2984 RMK A01 T02390188  RH  073%=      5-min Rain = 0
KSC1 201314Z 25006KT 24/18 A2984 RMK A01 T02420183  RH  069%=      5-min Rain = 0
KSC1 201315Z 25004KT 25/18 A2984 RMK A01 T02480180  RH  066%=      5-min Rain = 0
KSC1 201316Z 25002KT 25/19 A2984 RMK A01 T02530185  RH  066%=      5-min Rain = 0
KSC1 201317Z 26004KT 26/18 A2984 RMK A01 T02550183  RH  064%=      5-min Rain = 0
KSC1 201318Z 25005KT 26/18 A2984 RMK A01 T02580181  RH  062%=      5-min Rain = 0
KSC1 201319Z 25006KT 26/18 A2984 RMK A01 T02610175  RH  059%=      5-min Rain = 0
KSC1 201320Z 26005KT 26/18 A2984 RMK A01 T02640175  RH  058%=      5-min Rain = 0
KSC1 201321Z 26006KT 27/17 A2984 RMK A01 T02660174  RH  057%=      5-min Rain = 0
KSC1 201322Z 25007KT 27/17 A2984 RMK A01 T02680171  RH  055%=      5-min Rain = 0
KSC1 201323Z 26005KT 27/17 A2984 RMK A01 T02700171  RH  055%=      5-min Rain = 0
KSC1 201324Z 25004KT 27/17 A2984 RMK A01 T02710173  RH  055%=      5-min Rain = 0
KSC1 201325Z 27005KT 27/17 A2984 RMK A01 T02720173  RH  055%=      5-min Rain = 0
KSC1 201326Z 27005KT 27/17 A2984 RMK A01 T02730172  RH  054%=      5-min Rain = 0
KSC1 201327Z 27005KT 27/17 A2984 RMK A01 T02740168  RH  052%=      5-min Rain = 0
KSC1 201328Z 26004KT 28/17 A2984 RMK A01 T02760169  RH  052%=      5-min Rain = 0
KSC1 201329Z 26004KT 28/17 A2984 RMK A01 T02770167  RH  051%=      5-min Rain = 0
KSC1 201330Z 27003KT 28/17 A2984 RMK A01 T02780169  RH  051%=      5-min Rain = 0
KSC1 201331Z 28003KT 28/17 A2984 RMK A01 T02790168  RH  051%=      5-min Rain = 0
KSC1 201332Z 28004KT 28/17 A2984 RMK A01 T02810165  RH  049%=      5-min Rain = 0
KSC1 201333Z 27003KT 28/17 A2984 RMK A01 T02820166  RH  049%=      5-min Rain = 0
KSC1 201334Z 26005KT 28/16 A2984 RMK A01 T02830163  RH  048%=      5-min Rain = 0
KSC1 201335Z 27004KT 28/16 A2984 RMK A01 T02840164  RH  048%=      5-min Rain = 0
KSC1 201336Z 26004KT 29/16 A2984 RMK A01 T02860163  RH  047%=      5-min Rain = 0
KSC1 201337Z 27003KT 29/16 A2984 RMK A01 T02870164  RH  047%=      5-min Rain = 0
KSC1 201338Z 29004KT 29/16 A2984 RMK A01 T02880160  RH  046%=      5-min Rain = 0
KSC1 201339Z 28004KT 29/16 A2984 RMK A01 T02890158  RH  045%=      5-min Rain = 0
KSC1 201340Z 29003KT 29/15 A2984 RMK A01 T02900154  RH  044%=      5-min Rain = 0
KSC1 201341Z 28006KT 29/16 A2984 RMK A01 T02900156  RH  044%=      5-min Rain = 0
KSC1 201342Z 26005KT 29/15 A2984 RMK A01 T02920152  RH  043%=      5-min Rain = 0
KSC1 201343Z 28004KT 29/15 A2984 RMK A01 T02930146  RH  041%=      5-min Rain = 0
KSC1 201344Z 25005KT 29/15 A2984 RMK A01 T02940150  RH  041%=      5-min Rain = 0
KSC1 201345Z 25005KT 30/15 A2984 RMK A01 T02950147  RH  041%=      5-min Rain = 0
KSC1 201346Z 28004KT 30/15 A2984 RMK A01 T02950150  RH  041%=      5-min Rain = 0
KSC1 201347Z 26004KT 30/15 A2984 RMK A01 T02960150  RH  041%=      5-min Rain = 0
KSC1 201348Z 26003KT 30/15 A2984 RMK A01 T02970149  RH  040%=      5-min Rain = 0
KSC1 201349Z 24005KT 30/15 A2984 RMK A01 T02980151  RH  041%=      5-min Rain = 0
KSC1 201350Z 26005KT 30/15 A2984 RMK A01 T02990149  RH  040%=      5-min Rain = 0
KSC1 201351Z 26004KT 30/15 A2984 RMK A01 T03000146  RH  039%=      5-min Rain = 0
KSC1 201352Z 28004KT 30/15 A2984 RMK A01 T03000145  RH  039%=      5-min Rain = 0
KSC1 201353Z 25004KT 30/15 A2984 RMK A01 T03010150  RH  040%=      5-min Rain = 0
KSC1 201354Z 25003KT 30/15 A2984 RMK A01 T03020146  RH  039%=      5-min Rain = 0
KSC1 201355Z 26003KT 30/14 A2984 RMK A01 T03020144  RH  038%=      5-min Rain = 0
KSC1 201356Z 26003KT 30/15 A2984 RMK A01 T03030149  RH  039%=      5-min Rain = 0
KSC1 201357Z 27003KT 30/15 A2984 RMK A01 T03040149  RH  039%=      5-min Rain = 0
KSC1 201358Z 28002KT 31/15 A2984 RMK A01 T03050152  RH  039%=      5-min Rain = 0
KSC1 201359Z 26004KT 31/14 A2984 RMK A01 T03050143  RH  037%=      5-min Rain = 0
KSC1 201400Z 26004KT 31/14 A2984 RMK A01 T03060138  RH  036%=      5-min Rain = 0
KSC1 201401Z 27003KT 31/14 A2984 RMK A01 T03060140  RH  036%=      5-min Rain = 0
KSC1 201402Z 28003KT 31/14 A2984 RMK A01 T03060143  RH  037%=      5-min Rain = 0
KSC1 201403Z 26003KT 31/14 A2984 RMK A01 T03070144  RH  037%=      5-min Rain = 0
KSC1 201404Z 24002KT 31/15 A2984 RMK A01 T03080145  RH  037%=      5-min Rain = 0
KSC1 201405Z 26003KT 31/14 A2984 RMK A01 T03090142  RH  036%=      5-min Rain = 0
KSC1 201406Z 25003KT 31/14 A2984 RMK A01 T03100141  RH  036%=      5-min Rain = 0
KSC1 201407Z 22003KT 31/14 A2984 RMK A01 T03100140  RH  035%=      5-min Rain = 0
KSC1 201408Z 25002KT 31/14 A2984 RMK A01 T03110141  RH  035%=      5-min Rain = 0
KSC1 201409Z 24002KT 31/14 A2984 RMK A01 T03120143  RH  036%=      5-min Rain = 0
KSC1 201410Z 25000KT 31/14 A2984 RMK A01 T03120144  RH  036%=      5-min Rain = 0
KSC1 201411Z 25002KT 31/14 A2984 RMK A01 T03140143  RH  035%=      5-min Rain = 0
KSC1 201412Z 29002KT 32/14 A2984 RMK A01 T03160144  RH  035%=      5-min Rain = 0
KSC1 201413Z 29002KT 32/14 A2984 RMK A01 T03160136  RH  033%=      5-min Rain = 0
KSC1 201414Z 30002KT 32/14 A2984 RMK A01 T03160137  RH  034%=      5-min Rain = 0
KSC1 201415Z 32002KT 32/13 A2984 RMK A01 T03160133  RH  033%=      5-min Rain = 0
KSC1 201416Z 32002KT 32/13 A2984 RMK A01 T03170131  RH  032%=      5-min Rain = 0
KSC1 201417Z 29001KT 32/13 A2984 RMK A01 T03180131  RH  032%=      5-min Rain = 0
KSC1 201418Z 28001KT 32/13 A2984 RMK A01 T03190131  RH  032%=      5-min Rain = 0
KSC1 201419Z 03000KT 32/13 A2984 RMK A01 T03210131  RH  032%=      5-min Rain = 0
KSC1 201420Z 32001KT 32/13 A2984 RMK A01 T03230130  RH  031%=      5-min Rain = 0
KSC1 201421Z 34002KT 33/13 A2984 RMK A01 T03250132  RH  031%=      5-min Rain = 0
KSC1 201422Z 35002KT 33/13 A2984 RMK A01 T03260133  RH  031%=      5-min Rain = 0
KSC1 201423Z 31003KT 33/14 A2984 RMK A01 T03250138  RH  032%=      5-min Rain = 0
KSC1 201424Z 35004KT 33/12 A2984 RMK A01 T03250123  RH  029%=      5-min Rain = 0
KSC1 201425Z 35002KT 33/12 A2984 RMK A01 T03260118  RH  028%=      5-min Rain = 0
KSC1 201426Z 06000KT 33/12 A2984 RMK A01 T03280117  RH  028%=      5-min Rain = 0
KSC1 201427Z 25003KT 33/12 A2984 RMK A01 T03310118  RH  027%=      5-min Rain = 0
KSC1 201428Z 26004KT 33/11 A2984 RMK A01 T03320113  RH  026%=      5-min Rain = 0
KSC1 201429Z 27003KT 33/12 A2984 RMK A01 T03310118  RH  027%=      5-min Rain = 0
KSC1 201430Z 30002KT 33/12 A2984 RMK A01 T03310115  RH  027%=      5-min Rain = 0
KSC1 201431Z 02002KT 33/12 A2984 RMK A01 T03330123  RH  028%=      5-min Rain = 0
KSC1 201432Z 32002KT 33/12 A2984 RMK A01 T03340122  RH  028%=      5-min Rain = 0
KSC1 201433Z 26001KT 34/13 A2984 RMK A01 T03360125  RH  028%=      5-min Rain = 0
KSC1 201434Z 19002KT 34/12 A2984 RMK A01 T03370116  RH  026%=      5-min Rain = 0
KSC1 201435Z 31002KT 34/11 A2984 RMK A01 T03380111  RH  025%=      5-min Rain = 0
KSC1 201436Z 23004KT 34/11 A2984 RMK A01 T03400105  RH  024%=      5-min Rain = 0
KSC1 201437Z 23005KT 34/10 A2984 RMK A01 T03410097  RH  022%=      5-min Rain = 0
KSC1 201438Z 23004KT 34/10 A2984 RMK A01 T03410100  RH  023%=      5-min Rain = 0
KSC1 201439Z 23005KT 34/09 A2984 RMK A01 T03410093  RH  022%=      5-min Rain = 0
KSC1 201440Z 23006KT 34/09 A2984 RMK A01 T03400091  RH  022%=      5-min Rain = 0
KSC1 201441Z 23004KT 34/09 A2984 RMK A01 T03400090  RH  022%=      5-min Rain = 0
KSC1 201442Z 24007KT 34/09 A2984 RMK A01 T03410091  RH  022%=      5-min Rain = 0
KSC1 201443Z 24006KT 34/09 A2984 RMK A01 T03420088  RH  021%=      5-min Rain = 0
KSC1 201444Z 23007KT 34/09 A2984 RMK A01 T03420089  RH  021%=      5-min Rain = 0
KSC1 201445Z 23010KT 34/08 A2984 RMK A01 T03430079  RH  020%=      5-min Rain = 0
KSC1 201446Z 22007G12KT 34/08 A2984 RMK A01 T03430079  RH  020%=      5-min Rain = 0
KSC1 201447Z 23007G12KT 34/08 A2984 RMK A01 T03440078  RH  019%=      5-min Rain = 0
KSC1 201448Z 24006KT 34/08 A2984 RMK A01 T03440084  RH  020%=      5-min Rain = 0
KSC1 201449Z 24008KT 35/08 A2984 RMK A01 T03460083  RH  020%=      5-min Rain = 0
KSC1 201450Z 24008KT 35/08 A2984 RMK A01 T03470080  RH  019%=      5-min Rain = 0
KSC1 201451Z 23007KT 35/08 A2984 RMK A01 T03470079  RH  019%=      5-min Rain = 0
KSC1 201452Z 23004KT 35/09 A2984 RMK A01 T03470085  RH  020%=      5-min Rain = 0
KSC1 201453Z 23007KT 35/08 A2984 RMK A01 T03480082  RH  020%=      5-min Rain = 0
KSC1 201454Z 24007KT 35/08 A2984 RMK A01 T03490084  RH  020%=      5-min Rain = 0
KSC1 201455Z 24007KT 35/08 A2984 RMK A01 T03500076  RH  019%=      5-min Rain = 0
KSC1 201456Z 23009KT 35/08 A2984 RMK A01 T03500075  RH  018%=      5-min Rain = 0
KSC1 201457Z 24008KT 35/07 A2984 RMK A01 T03500068  RH  018%=      5-min Rain = 0
KSC1 201458Z 23009KT 35/06 A2984 RMK A01 T03500063  RH  017%=      5-min Rain = 0
KSC1 201459Z 23008KT 35/07 A2984 RMK A01 T03510065  RH  017%=      5-min Rain = 0
KSC1 201500Z 23008KT 35/06 A2984 RMK A01 T03520064  RH  017%=      5-min Rain = 0
KSC1 201501Z 23008KT 35/06 A2984 RMK A01 T03530063  RH  017%=      5-min Rain = 0
KSC1 201502Z 24010KT 35/06 A2984 RMK A01 T03540056  RH  016%=      5-min Rain = 0
KSC1 201503Z 24008KT 36/06 A2984 RMK A01 T03550056  RH  016%=      5-min Rain = 0
KSC1 201504Z 25009KT 35/05 A2984 RMK A01 T03540052  RH  015%=      5-min Rain = 0
KSC1 201505Z 24009KT 36/05 A2984 RMK A01 T03550051  RH  015%=      5-min Rain = 0
KSC1 201506Z 23008KT 36/06 A2984 RMK A01 T03550057  RH  016%=      5-min Rain = 0
KSC1 201507Z 23007KT 36/06 A2984 RMK A01 T03570058  RH  016%=      5-min Rain = 0
KSC1 201508Z 24004KT 36/06 A2984 RMK A01 T03570062  RH  016%=      5-min Rain = 0
KSC1 201509Z 24007KT 36/07 A2984 RMK A01 T03590065  RH  016%=      5-min Rain = 0
KSC1 201510Z 24006KT 36/06 A2984 RMK A01 T03600064  RH  016%=      5-min Rain = 0
KSC1 201511Z 23006KT 36/06 A2984 RMK A01 T03620058  RH  015%=      5-min Rain = 0
KSC1 201512Z 24007KT 36/06 A2984 RMK A01 T03620061  RH  016%=      5-min Rain = 0
KSC1 201513Z 25010KT 36/06 A2984 RMK A01 T03620055  RH  015%=      5-min Rain = 0
KSC1 201514Z 24010KT 36/05 A2984 RMK A01 T03620050  RH  015%=      5-min Rain = 0
KSC1 201515Z 23008KT 36/05 A2984 RMK A01 T03620051  RH  015%=      5-min Rain = 0
KSC1 201516Z 23007KT 36/06 A2984 RMK A01 T03620057  RH  015%=      5-min Rain = 0
KSC1 201517Z 22008KT 36/06 A2984 RMK A01 T03630061  RH  016%=      5-min Rain = 0
KSC1 201518Z 22009KT 36/06 A2984 RMK A01 T03640061  RH  016%=      5-min Rain = 0
KSC1 201519Z 22010KT 36/06 A2984 RMK A01 T03640057  RH  015%=      5-min Rain = 0
KSC1 201520Z 23012KT 36/05 A2984 RMK A01 T03630053  RH  015%=      5-min Rain = 0
KSC1 201521Z 23009KT 36/05 A2984 RMK A01 T03620052  RH  015%=      5-min Rain = 0
KSC1 201522Z 23010KT 36/05 A2984 RMK A01 T03620052  RH  015%=      5-min Rain = 0
KSC1 201523Z 24008KT 36/05 A2984 RMK A01 T03620054  RH  015%=      5-min Rain = 0
KSC1 201524Z 24006KT 36/06 A2984 RMK A01 T03630055  RH  015%=      5-min Rain = 0
KSC1 201525Z 23008KT 36/06 A2984 RMK A01 T03640059  RH  015%=      5-min Rain = 0
KSC1 201526Z 22007KT 37/06 A2984 RMK A01 T03650059  RH  015%=      5-min Rain = 0
KSC1 201527Z 25009KT 37/06 A2984 RMK A01 T03660063  RH  016%=      5-min Rain = 0
KSC1 201528Z 25007KT 37/06 A2984 RMK A01 T03660059  RH  015%=      5-min Rain = 0
KSC1 201529Z 25009KT 37/06 A2983 RMK A01 T03670057  RH  015%=      5-min Rain = 0
KSC1 201530Z 23007KT 37/06 A2983 RMK A01 T03670057  RH  015%=      5-min Rain = 0
KSC1 201531Z 24007KT 37/06 A2984 RMK A01 T03670063  RH  015%=      5-min Rain = 0
KSC1 201532Z 24008KT 37/06 A2983 RMK A01 T03690064  RH  015%=      5-min Rain = 0
KSC1 201533Z 24012KT 37/06 A2984 RMK A01 T03700058  RH  015%=      5-min Rain = 0
KSC1 201534Z 23010KT 37/05 A2983 RMK A01 T03690051  RH  014%=      5-min Rain = 0
KSC1 201535Z 23010KT 37/05 A2983 RMK A01 T03680050  RH  014%=      5-min Rain = 0
KSC1 201536Z 24010KT 37/05 A2983 RMK A01 T03670049  RH  014%=      5-min Rain = 0
KSC1 201537Z 24008KT 37/05 A2983 RMK A01 T03670054  RH  015%=      5-min Rain = 0
KSC1 201538Z 21009KT 37/06 A2983 RMK A01 T03680060  RH  015%=      5-min Rain = 0
KSC1 201539Z 22011KT 37/05 A2983 RMK A01 T03700053  RH  014%=      5-min Rain = 0
KSC1 201540Z 22010KT 37/05 A2983 RMK A01 T03690047  RH  014%=      5-min Rain = 0
KSC1 201541Z 21008G13KT 37/05 A2983 RMK A01 T03690049  RH  014%=      5-min Rain = 0
KSC1 201542Z 23008G14KT 37/05 A2983 RMK A01 T03700053  RH  014%=      5-min Rain = 0
KSC1 201543Z 23010KT 37/05 A2983 RMK A01 T03720048  RH  014%=      5-min Rain = 0
KSC1 201544Z 23010KT 37/05 A2983 RMK A01 T03720047  RH  013%=      5-min Rain = 0
KSC1 201545Z 21009KT 37/05 A2983 RMK A01 T03720046  RH  013%=      5-min Rain = 0
KSC1 201546Z 22009G14KT 37/05 A2983 RMK A01 T03710046  RH  013%=      5-min Rain = 0
KSC1 201547Z 23012KT 37/04 A2983 RMK A01 T03710040  RH  013%=      5-min Rain = 0
KSC1 201548Z 22010KT 37/04 A2983 RMK A01 T03710040  RH  013%=      5-min Rain = 0
KSC1 201549Z 22010KT 37/04 A2983 RMK A01 T03710036  RH  013%=      5-min Rain = 0
KSC1 201550Z 22008KT 37/04 A2983 RMK A01 T03710039  RH  013%=      5-min Rain = 0
KSC1 201551Z 22010G15KT 37/04 A2983 RMK A01 T03710043  RH  013%=      5-min Rain = 0
KSC1 201552Z 23011KT 37/04 A2983 RMK A01 T03710038  RH  013%=      5-min Rain = 0
KSC1 201553Z 23009KT 37/04 A2983 RMK A01 T03710039  RH  013%=      5-min Rain = 0
KSC1 201554Z 24010KT 37/04 A2983 RMK A01 T03720044  RH  013%=      5-min Rain = 0
KSC1 201555Z 24010KT 37/04 A2983 RMK A01 T03730040  RH  013%=      5-min Rain = 0
KSC1 201556Z 23009KT 37/04 A2983 RMK A01 T03730040  RH  013%=      5-min Rain = 0
KSC1 201557Z 23009G15KT 37/04 A2983 RMK A01 T03730044  RH  013%=      5-min Rain = 0
KSC1 201558Z 23007KT 38/04 A2983 RMK A01 T03750044  RH  013%=      5-min Rain = 0
KSC1 201559Z 20006KT 38/05 A2983 RMK A01 T03760051  RH  014%=      5-min Rain = 0
KSC1 201600Z 20010KT 38/05 A2983 RMK A01 T03780045  RH  013%=      5-min Rain = 0
KSC1 201601Z 21008KT 38/04 A2983 RMK A01 T03770042  RH  013%=      5-min Rain = 0
KSC1 201602Z 21009G14KT 38/05 A2983 RMK A01 T03770052  RH  014%=      5-min Rain = 0
KSC1 201603Z 23010KT 38/04 A2983 RMK A01 T03780043  RH  013%=      5-min Rain = 0
KSC1 201604Z 21011KT 38/04 A2983 RMK A01 T03780044  RH  013%=      5-min Rain = 0
KSC1 201605Z 22010KT 38/04 A2983 RMK A01 T03770044  RH  013%=      5-min Rain = 0
KSC1 201606Z 23008G13KT 38/05 A2983 RMK A01 T03760046  RH  013%=      5-min Rain = 0
KSC1 201607Z 23010KT 38/05 A2983 RMK A01 T03770049  RH  013%=      5-min Rain = 0
KSC1 201608Z 23009KT 38/05 A2983 RMK A01 T03780047  RH  013%=      5-min Rain = 0
KSC1 201609Z 22008KT 38/05 A2983 RMK A01 T03790049  RH  013%=      5-min Rain = 0
KSC1 201610Z 22009KT 38/04 A2983 RMK A01 T03790042  RH  013%=      5-min Rain = 0
KSC1 201611Z 21009G14KT 38/05 A2983 RMK A01 T03790047  RH  013%=      5-min Rain = 0
KSC1 201612Z 20011KT 38/04 A2983 RMK A01 T03790041  RH  012%=      5-min Rain = 0
KSC1 201613Z 21012KT 38/05 A2983 RMK A01 T03780047  RH  013%=      5-min Rain = 0
KSC1 201614Z 22009KT 38/04 A2983 RMK A01 T03780043  RH  013%=      5-min Rain = 0
KSC1 201615Z 23010KT 38/05 A2983 RMK A01 T03780046  RH  013%=      5-min Rain = 0
KSC1 201616Z 22009KT 38/04 A2983 RMK A01 T03790043  RH  013%=      5-min Rain = 0
KSC1 201617Z 22010KT 38/05 A2983 RMK A01 T03780047  RH  013%=      5-min Rain = 0
KSC1 201618Z 23008KT 38/05 A2983 RMK A01 T03790050  RH  013%=      5-min Rain = 0
KSC1 201619Z 23009KT 38/05 A2983 RMK A01 T03800051  RH  013%=      5-min Rain = 0
KSC1 201620Z 24010KT 38/05 A2983 RMK A01 T03800047  RH  013%=      5-min Rain = 0
KSC1 201621Z 22011KT 38/04 A2983 RMK A01 T03800044  RH  013%=      5-min Rain = 0
KSC1 201622Z 22010KT 38/04 A2983 RMK A01 T03810035  RH  012%=      5-min Rain = 0
KSC1 201623Z 20010KT 38/04 A2983 RMK A01 T03810038  RH  012%=      5-min Rain = 0
KSC1 201624Z 21012KT 38/03 A2984 RMK A01 T03810029  RH  011%=      5-min Rain = 0
KSC1 201625Z 22012KT 38/02 A2984 RMK A01 T03810019  RH  011%=      5-min Rain = 0
KSC1 201626Z 23010KT 38/03 A2984 RMK A01 T03790025  RH  011%=      5-min Rain = 0
KSC1 201627Z 21010KT 38/04 A2984 RMK A01 T03790035  RH  012%=      5-min Rain = 0
KSC1 201628Z 21011KT 38/03 A2984 RMK A01 T03820032  RH  011%=      5-min Rain = 0
KSC1 201629Z 22007KT 38/03 A2984 RMK A01 T03820031  RH  011%=      5-min Rain = 0
KSC1 201630Z 21007KT 38/04 A2984 RMK A01 T03830038  RH  012%=      5-min Rain = 0
KSC1 201631Z 23008KT 39/04 A2984 RMK A01 T03850035  RH  012%=      5-min Rain = 0
KSC1 201632Z 23012KT 39/03 A2984 RMK A01 T03860027  RH  011%=      5-min Rain = 0
KSC1 201633Z 22012KT 38/02 A2984 RMK A01 T03840022  RH  011%=      5-min Rain = 0
KSC1 201634Z 23008KT 38/03 A2984 RMK A01 T03830025  RH  011%=      5-min Rain = 0
KSC1 201635Z 23007KT 38/03 A2983 RMK A01 T03830028  RH  011%=      5-min Rain = 0
KSC1 201636Z 23008KT 38/03 A2983 RMK A01 T03840029  RH  011%=      5-min Rain = 0
KSC1 201637Z 22012KT 39/03 A2984 RMK A01 T03860028  RH  011%=      5-min Rain = 0
KSC1 201638Z 21012KT 39/02 A2984 RMK A01 T03860019  RH  010%=      5-min Rain = 0
KSC1 201639Z 22008KT 39/02 A2984 RMK A01 T03860024  RH  011%=      5-min Rain = 0
KSC1 201640Z 21009KT 39/03 A2983 RMK A01 T03860027  RH  011%=      5-min Rain = 0
KSC1 201641Z 21011KT 39/02 A2983 RMK A01 T03860019  RH  010%=      5-min Rain = 0
KSC1 201642Z 21010KT 39/02 A2983 RMK A01 T03850018  RH  010%=      5-min Rain = 0
KSC1 201643Z 22011KT 38/02 A2983 RMK A01 T03840023  RH  011%=      5-min Rain = 0
KSC1 201644Z 21010KT 38/03 A2983 RMK A01 T03840025  RH  011%=      5-min Rain = 0
KSC1 201645Z 21008KT 38/03 A2983 RMK A01 T03840032  RH  011%=      5-min Rain = 0
KSC1 201646Z 23009KT 39/03 A2983 RMK A01 T03860031  RH  011%=      5-min Rain = 0
KSC1 201647Z 20011KT 39/03 A2983 RMK A01 T03860029  RH  011%=      5-min Rain = 0
KSC1 201648Z 21011KT 39/03 A2983 RMK A01 T03860026  RH  011%=      5-min Rain = 0
KSC1 201649Z 20010KT 38/03 A2983 RMK A01 T03840029  RH  011%=      5-min Rain = 0
KSC1 201650Z 20009KT 39/03 A2983 RMK A01 T03850030  RH  011%=      5-min Rain = 0
KSC1 201651Z 20009KT 39/03 A2983 RMK A01 T03850025  RH  011%=      5-min Rain = 0
KSC1 201652Z 21011KT 39/03 A2983 RMK A01 T03850032  RH  011%=      5-min Rain = 0
KSC1 201653Z 20012KT 39/02 A2983 RMK A01 T03860024  RH  011%=      5-min Rain = 0
KSC1 201654Z 19009KT 39/02 A2983 RMK A01 T03860022  RH  010%=      5-min Rain = 0
KSC1 201655Z 20010G15KT 39/02 A2983 RMK A01 T03860022  RH  010%=      5-min Rain = 0
KSC1 201656Z 20009G14KT 39/02 A2983 RMK A01 T03860023  RH  011%=      5-min Rain = 0
KSC1 201657Z 20012G17KT 39/03 A2983 RMK A01 T03860026  RH  011%=      5-min Rain = 0
KSC1 201658Z 20010KT 39/03 A2983 RMK A01 T03860029  RH  011%=      5-min Rain = 0
KSC1 201659Z 19012KT 39/02 A2983 RMK A01 T03860023  RH  011%=      5-min Rain = 0
KSC1 201700Z 21010KT 39/02 A2983 RMK A01 T03850018  RH  010%=      5-min Rain = 0
KSC1 201701Z 21013KT 38/02 A2983 RMK A01 T03840021  RH  010%=      5-min Rain = 0
KSC1 201702Z 21011KT 38/02 A2983 RMK A01 T03840016  RH  010%=      5-min Rain = 0
KSC1 201703Z 20009KT 38/02 A2983 RMK A01 T03840020  RH  010%=      5-min Rain = 0
KSC1 201704Z 21011KT 38/02 A2983 RMK A01 T03840024  RH  011%=      5-min Rain = 0
KSC1 201705Z 20009KT 39/03 A2984 RMK A01 T03860028  RH  011%=      5-min Rain = 0
KSC1 201706Z 22010KT 39/02 A2984 RMK A01 T03880022  RH  010%=      5-min Rain = 0
KSC1 201707Z 21011KT 39/03 A2983 RMK A01 T03880026  RH  011%=      5-min Rain = 0
KSC1 201708Z 20009KT 39/03 A2983 RMK A01 T03870031  RH  011%=      5-min Rain = 0
KSC1 201709Z 20010G15KT 39/04 A2983 RMK A01 T03900036  RH  011%=      5-min Rain = 0
KSC1 201710Z 21008KT 39/03 A2984 RMK A01 T03900032  RH  011%=      5-min Rain = 0
KSC1 201711Z 21009KT 39/04 A2984 RMK A01 T03910040  RH  012%=      5-min Rain = 0
KSC1 201712Z 24009KT 39/04 A2984 RMK A01 T03920035  RH  011%=      5-min Rain = 0
KSC1 201713Z 25010KT 39/03 A2983 RMK A01 T03920029  RH  011%=      5-min Rain = 0
KSC1 201714Z 24010KT 39/03 A2983 RMK A01 T03900030  RH  011%=      5-min Rain = 0
KSC1 201715Z 23009KT 39/03 A2983 RMK A01 T03880034  RH  011%=      5-min Rain = 0
KSC1 201716Z 23011KT 39/03 A2983 RMK A01 T03890034  RH  011%=      5-min Rain = 0
KSC1 201717Z 22009G14KT 39/03 A2984 RMK A01 T03890030  RH  011%=      5-min Rain = 0
KSC1 201718Z 20010KT 39/04 A2984 RMK A01 T03890035  RH  011%=      5-min Rain = 0
KSC1 201719Z 21009KT 39/03 A2983 RMK A01 T03890033  RH  011%=      5-min Rain = 0
KSC1 201720Z 20010KT 39/03 A2983 RMK A01 T03890032  RH  011%=      5-min Rain = 0
KSC1 201721Z 19010KT 39/03 A2983 RMK A01 T03880034  RH  011%=      5-min Rain = 0
KSC1 201722Z 19010KT 39/03 A2983 RMK A01 T03880032  RH  011%=      5-min Rain = 0
KSC1 201723Z 21010KT 39/04 A2983 RMK A01 T03870036  RH  012%=      5-min Rain = 0
KSC1 201724Z 22009KT 39/03 A2983 RMK A01 T03870033  RH  011%=      5-min Rain = 0
KSC1 201725Z 21006G11KT 39/04 A2983 RMK A01 T03880038  RH  012%=      5-min Rain = 0
KSC1 201726Z 21008G13KT 39/04 A2983 RMK A01 T03900038  RH  011%=      5-min Rain = 0
KSC1 201727Z 20010KT 39/04 A2983 RMK A01 T03920041  RH  012%=      5-min Rain = 0
KSC1 201728Z 22007KT 39/04 A2983 RMK A01 T03920039  RH  011%=      5-min Rain = 0
KSC1 201729Z 22008KT 39/05 A2983 RMK A01 T03930051  RH  012%=      5-min Rain = 0
KSC1 201730Z 20006KT 40/05 A2983 RMK A01 T03960045  RH  012%=      5-min Rain = 0
KSC1 201731Z 20007KT 40/05 A2983 RMK A01 T03970050  RH  012%=      5-min Rain = 0
KSC1 201732Z 19010KT 40/04 A2983 RMK A01 T03980039  RH  011%=      5-min Rain = 0
KSC1 201733Z 22007G12KT 40/05 A2983 RMK A01 T03960045  RH  012%=      5-min Rain = 0
KSC1 201734Z 22009KT 40/05 A2983 RMK A01 T03970046  RH  012%=      5-min Rain = 0
KSC1 201735Z 23009KT 40/04 A2983 RMK A01 T03980042  RH  011%=      5-min Rain = 0
KSC1 201736Z 23008KT 40/04 A2983 RMK A01 T03970044  RH  012%=      5-min Rain = 0
KSC1 201737Z 22011KT 40/04 A2983 RMK A01 T03970044  RH  012%=      5-min Rain = 0
KSC1 201738Z 21011KT 40/04 A2983 RMK A01 T03960039  RH  011%=      5-min Rain = 0
KSC1 201739Z 20011KT 40/04 A2983 RMK A01 T03950038  RH  011%=      5-min Rain = 0
KSC1 201740Z 19012KT 40/04 A2983 RMK A01 T03950041  RH  011%=      5-min Rain = 0
KSC1 201741Z 19012KT 40/03 A2983 RMK A01 T03950034  RH  011%=      5-min Rain = 0
KSC1 201742Z 20008KT 39/03 A2983 RMK A01 T03930034  RH  011%=      5-min Rain = 0
KSC1 201743Z 19007KT 39/04 A2983 RMK A01 T03920035  RH  011%=      5-min Rain = 0
KSC1 201744Z 21008KT 39/04 A2983 RMK A01 T03920037  RH  011%=      5-min Rain = 0
KSC1 201745Z 22010KT 39/04 A2983 RMK A01 T03920038  RH  011%=      5-min Rain = 0
KSC1 201746Z 22012KT 39/03 A2983 RMK A01 T03930031  RH  011%=      5-min Rain = 0
KSC1 201747Z 24010KT 39/04 A2983 RMK A01 T03930040  RH  011%=      5-min Rain = 0
KSC1 201748Z 23007KT 39/04 A2983 RMK A01 T03930035  RH  011%=      5-min Rain = 0
KSC1 201749Z 23007KT 39/05 A2983 RMK A01 T03940045  RH  012%=      5-min Rain = 0
KSC1 201750Z 22008KT 40/05 A2983 RMK A01 T03960046  RH  012%=      5-min Rain = 0
KSC1 201751Z 21008KT 40/04 A2983 RMK A01 T03980041  RH  011%=      5-min Rain = 0
KSC1 201752Z 19012KT 40/04 A2983 RMK A01 T03980041  RH  011%=      5-min Rain = 0
KSC1 201753Z 22012KT 40/03 A2982 RMK A01 T03970032  RH  011%=      5-min Rain = 0
KSC1 201754Z 20011KT 40/03 A2982 RMK A01 T03950027  RH  010%=      5-min Rain = 0
KSC1 201755Z 20011KT 39/03 A2982 RMK A01 T03940031  RH  011%=      5-min Rain = 0
KSC1 201756Z 21011KT 39/04 A2982 RMK A01 T03940036  RH  011%=      5-min Rain = 0
KSC1 201757Z 22013G18KT 40/03 A2983 RMK A01 T03960034  RH  011%=      5-min Rain = 0
KSC1 201758Z 21008KT 40/03 A2983 RMK A01 T03970034  RH  011%=      5-min Rain = 0
KSC1 201759Z 20009KT 40/04 A2982 RMK A01 T03980040  RH  011%=      5-min Rain = 0
KSC1 201800Z 20009KT 40/03 A2982 RMK A01 T03980029  RH  010%=      5-min Rain = 0
KSC1 201801Z 21011G16KT 40/04 A2982 RMK A01 T03970041  RH  011%=      5-min Rain = 0
KSC1 201802Z 21012KT 40/04 A2982 RMK A01 T03980039  RH  011%=      5-min Rain = 0
KSC1 201803Z 22010KT 40/03 A2982 RMK A01 T03990031  RH  010%=      5-min Rain = 0
KSC1 201804Z 19011KT 40/03 A2982 RMK A01 T03980030  RH  010%=      5-min Rain = 0
KSC1 201805Z 19009KT 40/04 A2982 RMK A01 T03960035  RH  011%=      5-min Rain = 0
KSC1 201806Z 21010KT 40/04 A2982 RMK A01 T03960037  RH  011%=      5-min Rain = 0
KSC1 201807Z 25008KT 40/04 A2982 RMK A01 T03980042  RH  011%=      5-min Rain = 0
KSC1 201808Z 23010KT 40/04 A2982 RMK A01 T04000042  RH  011%=      5-min Rain = 0
KSC1 201809Z 22008KT 40/04 A2982 RMK A01 T04010040  RH  011%=      5-min Rain = 0
KSC1 201810Z 21009KT 40/04 A2982 RMK A01 T04010038  RH  011%=      5-min Rain = 0
KSC1 201811Z 20011KT 40/03 A2982 RMK A01 T04010031  RH  010%=      5-min Rain = 0
KSC1 201812Z 18011KT 40/03 A2982 RMK A01 T03990029  RH  010%=      5-min Rain = 0
KSC1 201813Z 18010KT 40/02 A2982 RMK A01 T03970022  RH  010%=      5-min Rain = 0
KSC1 201814Z 18008KT 40/03 A2982 RMK A01 T03950027  RH  010%=      5-min Rain = 0
KSC1 201815Z 18008KT 40/03 A2982 RMK A01 T03960032  RH  011%=      5-min Rain = 0
KSC1 201816Z 20011KT 40/03 A2982 RMK A01 T03980034  RH  011%=      5-min Rain = 0
KSC1 201817Z 21008KT 40/04 A2982 RMK A01 T04000038  RH  011%=      5-min Rain = 0
KSC1 201818Z 23009G14KT 40/04 A2982 RMK A01 T04030037  RH  011%=      5-min Rain = 0
KSC1 201819Z 22010KT 41/02 A2982 RMK A01 T04050022  RH  009%=      5-min Rain = 0
KSC1 201820Z 23010KT 41/02 A2982 RMK A01 T04050023  RH  010%=      5-min Rain = 0
KSC1 201821Z 23013KT 40/03 A2982 RMK A01 T04030025  RH  010%=      5-min Rain = 0
KSC1 201822Z 22008KT 40/03 A2982 RMK A01 T04030025  RH  010%=      5-min Rain = 0
KSC1 201823Z 21009G15KT 40/02 A2982 RMK A01 T04020021  RH  010%=      5-min Rain = 0
KSC1 201824Z 22010KT 40/02 A2982 RMK A01 T04030019  RH  009%=      5-min Rain = 0
KSC1 201825Z 23012KT 40/01 A2982 RMK A01 T04030008  RH  009%=      5-min Rain = 0
KSC1 201826Z 21011KT 40/02 A2982 RMK A01 T04020019  RH  009%=      5-min Rain = 0
KSC1 201827Z 18010KT 40/03 A2982 RMK A01 T04020026  RH  010%=      5-min Rain = 0
KSC1 201828Z 20010G16KT 40/03 A2982 RMK A01 T04040032  RH  010%=      5-min Rain = 0
KSC1 201829Z 20012KT 40/01 A2982 RMK A01 T04040011  RH  009%=      5-min Rain = 0
KSC1 201830Z 23008KT 40/02 A2982 RMK A01 T04040023  RH  010%=      5-min Rain = 0
KSC1 201831Z 24008KT 41/02 A2982 RMK A01 T04070017  RH  009%=      5-min Rain = 0
KSC1 201832Z 21006KT 41/02 A2982 RMK A01 T04080018  RH  009%=      5-min Rain = 0
KSC1 201833Z 20005KT 41/02 A2982 RMK A01 T04100024  RH  009%=      5-min Rain = 0
KSC1 201834Z 20008KT 41/02 A2982 RMK A01 T04120023  RH  009%=      5-min Rain = 0
KSC1 201835Z 22005G10KT 41/01 A2982 RMK A01 T04110012  RH  009%=      5-min Rain = 0
KSC1 201836Z 21007KT 41/02 A2981 RMK A01 T04100020  RH  009%=      5-min Rain = 0
KSC1 201837Z 19006KT 41/04 A2981 RMK A01 T04110039  RH  010%=      5-min Rain = 0
KSC1 201838Z 18009KT 41/04 A2981 RMK A01 T04140044  RH  011%=      5-min Rain = 0
KSC1 201839Z 19008KT 41/04 A2981 RMK A01 T04130036  RH  010%=      5-min Rain = 0
KSC1 201840Z 19010KT 41/04 A2981 RMK A01 T04100038  RH  010%=      5-min Rain = 0
KSC1 201841Z 21011KT 41/03 A2981 RMK A01 T04080033  RH  010%=      5-min Rain = 0
KSC1 201842Z 23009KT 41/03 A2981 RMK A01 T04060027  RH  010%=      5-min Rain = 0
KSC1 201843Z 23008G13KT 41/01 A2982 RMK A01 T04050011  RH  009%=      5-min Rain = 0
KSC1 201844Z 20008KT 41/03 A2982 RMK A01 T04060032  RH  010%=      5-min Rain = 0
KSC1 201845Z 19006KT 41/04 A2981 RMK A01 T04070035  RH  010%=      5-min Rain = 0
KSC1 201846Z 20003KT 41/04 A2981 RMK A01 T04080041  RH  011%=      5-min Rain = 0
KSC1 201847Z 21003KT 41/04 A2981 RMK A01 T04100042  RH  011%=      5-min Rain = 0
KSC1 201848Z 22005KT 41/03 A2981 RMK A01 T04120030  RH  010%=      5-min Rain = 0
KSC1 201849Z 21004G9KT 41/03 A2981 RMK A01 T04090029  RH  010%=      5-min Rain = 0
KSC1 201850Z 23007G13KT 41/03 A2981 RMK A01 T04080028  RH  010%=      5-min Rain = 0
KSC1 201851Z 23010KT 41/01 A2981 RMK A01 T04080010  RH  009%=      5-min Rain = 0
KSC1 201852Z 20008KT 41/02 A2981 RMK A01 T04080023  RH  009%=      5-min Rain = 0
KSC1 201853Z 21010KT 41/03 A2981 RMK A01 T04090028  RH  010%=      5-min Rain = 0
KSC1 201854Z 18011KT 41/02 A2981 RMK A01 T04100021  RH  009%=      5-min Rain = 0
KSC1 201855Z 18008KT 41/02 A2981 RMK A01 T04060015  RH  009%=      5-min Rain = 0
KSC1 201856Z 22008G17KT 41/03 A2981 RMK A01 T04050033  RH  010%=      5-min Rain = 0
KSC1 201857Z 23014G20KT 41/01 A2981 RMK A01 T04080006  RH  008%=      5-min Rain = 0
KSC1 201858Z 23014KT 41/M01 A2981 RMK A01 T04081007  RH  008%=      5-min Rain = 0
KSC1 201859Z 22013KT 41/M01 A2981 RMK A01 T04071009  RH  007%=      5-min Rain = 0
KSC1 201900Z 23008KT 41/M01 A2981 RMK A01 T04051012  RH  007%=      5-min Rain = 0
KSC1 201901Z 23009KT 41/M01 A2981 RMK A01 T04051009  RH  008%=      5-min Rain = 0
KSC1 201902Z 24011KT 40/M01 A2981 RMK A01 T04041007  RH  008%=      5-min Rain = 0
KSC1 201903Z 23010KT 40/M01 A2981 RMK A01 T04041006  RH  008%=      5-min Rain = 0
KSC1 201904Z 25012KT 40/M01 A2981 RMK A01 T04031008  RH  008%=      5-min Rain = 0
KSC1 201905Z 24011KT 40/00 A298 RMK A01 T04020000  RH  008%=      5-min Rain = 0
KSC1 201906Z 24013G19KT 40/00 A2981 RMK A01 T04040000  RH  008%=      5-min Rain = 0
KSC1 201907Z 23014KT 41/M00 A298 RMK A01 T04051002  RH  008%=      5-min Rain = 0
KSC1 201908Z 22013KT 41/M01 A2981 RMK A01 T04061011  RH  007%=      5-min Rain = 0
KSC1 201909Z 23010G16KT 41/M00 A298 RMK A01 T04071001  RH  008%=      5-min Rain = 0
KSC1 201910Z 22014KT 41/M00 A2981 RMK A01 T04101004  RH  008%=      5-min Rain = 0
KSC1 201911Z 21011G16KT 41/M02 A2981 RMK A01 T04101016  RH  007%=      5-min Rain = 0
KSC1 201912Z 24008KT 41/M01 A298 RMK A01 T04081008  RH  007%=      5-min Rain = 0
KSC1 201913Z 23007G12KT 41/00 A298 RMK A01 T04100001  RH  008%=      5-min Rain = 0
KSC1 201914Z 24012G17KT 41/M00 A2981 RMK A01 T04121002  RH  008%=      5-min Rain = 0
KSC1 201915Z 25013KT 41/M02 A298 RMK A01 T04111017  RH  007%=      5-min Rain = 0
KSC1 201916Z 23009G14KT 41/M02 A298 RMK A01 T04071017  RH  007%=      5-min Rain = 0
KSC1 201917Z 21014KT 41/M00 A298 RMK A01 T04071003  RH  008%=      5-min Rain = 0
KSC1 201918Z 22012KT 41/M01 A298 RMK A01 T04091010  RH  007%=      5-min Rain = 0
KSC1 201919Z 21013KT 41/M02 A298 RMK A01 T04091015  RH  007%=      5-min Rain = 0
KSC1 201920Z 20008G14KT 41/M02 A298 RMK A01 T04081018  RH  007%=      5-min Rain = 0
KSC1 201921Z 22010G18KT 41/M00 A298 RMK A01 T04071003  RH  008%=      5-min Rain = 0
KSC1 201922Z 21014KT 41/M01 A298 RMK A01 T04081007  RH  008%=      5-min Rain = 0
KSC1 201923Z 21011KT 41/00 A298 RMK A01 T04090003  RH  008%=      5-min Rain = 0
KSC1 201924Z 22009KT 41/01 A298 RMK A01 T04110008  RH  008%=      5-min Rain = 0
KSC1 201925Z 21013G18KT 41/01 A298 RMK A01 T04140005  RH  008%=      5-min Rain = 0
KSC1 201926Z 20015KT 41/M01 A298 RMK A01 T04141007  RH  007%=      5-min Rain = 0
KSC1 201927Z 19013KT 41/M01 A298 RMK A01 T04111009  RH  007%=      5-min Rain = 0
KSC1 201928Z 20012KT 41/M01 A298 RMK A01 T04091011  RH  007%=      5-min Rain = 0
KSC1 201929Z 21013KT 41/M00 A298 RMK A01 T04091001  RH  008%=      5-min Rain = 0
KSC1 201930Z 23014G19KT 41/M00 A298 RMK A01 T04111003  RH  008%=      5-min Rain = 0
KSC1 201931Z 22012G17KT 41/M01 A298 RMK A01 T04111010  RH  007%=      5-min Rain = 0
KSC1 201932Z 21008KT 41/M01 A298 RMK A01 T04091009  RH  007%=      5-min Rain = 0
KSC1 201933Z 21011G16KT 41/00 A298 RMK A01 T040900-0  RH  008%=      5-min Rain = 0
KSC1 201934Z 22015KT 41/00 A298 RMK A01 T04130001  RH  008%=      5-min Rain = 0
KSC1 201935Z 22016G22KT 41/M01 A298 RMK A01 T04141010  RH  007%=      5-min Rain = 0
KSC1 201936Z 23013G18KT 41/M01 A298 RMK A01 T04121008  RH  007%=      5-min Rain = 0
KSC1 201937Z 24012KT 41/M01 A298 RMK A01 T04121012  RH  007%=      5-min Rain = 0
KSC1 201938Z 23010KT 41/M01 A298 RMK A01 T04111014  RH  007%=      5-min Rain = 0
KSC1 201939Z 23009KT 41/M02 A298 RMK A01 T04101020  RH  007%=      5-min Rain = 0
KSC1 201940Z 24007KT 41/M01 A298 RMK A01 T04091014  RH  007%=      5-min Rain = 0
KSC1 201941Z 22007G12KT 41/00 A298 RMK A01 T04100000  RH  008%=      5-min Rain = 0
KSC1 201942Z 21007KT 41/M01 A2979 RMK A01 T04121014  RH  007%=      5-min Rain = 0
KSC1 201943Z 19009G14KT 41/M00 A2979 RMK A01 T04111001  RH  008%=      5-min Rain = 0
KSC1 201944Z 22011KT 41/M00 A2979 RMK A01 T04131003  RH  008%=      5-min Rain = 0
KSC1 201945Z 24013KT 41/M01 A2979 RMK A01 T04121006  RH  007%=      5-min Rain = 0
KSC1 201946Z 24015G20KT 41/M00 A298 RMK A01 T04121001  RH  008%=      5-min Rain = 0
KSC1 201947Z 23013KT 41/M02 A2979 RMK A01 T04121015  RH  007%=      5-min Rain = 0
KSC1 201948Z 22013KT 41/M01 A2979 RMK A01 T04091013  RH  007%=      5-min Rain = 0
KSC1 201949Z 20012KT 41/M01 A2979 RMK A01 T04091011  RH  007%=      5-min Rain = 0
KSC1 201950Z 22010G15KT 41/M01 A2979 RMK A01 T04091011  RH  007%=      5-min Rain = 0
KSC1 201951Z 22008KT 41/M00 A2979 RMK A01 T04091004  RH  008%=      5-min Rain = 0
KSC1 201952Z 21015G20KT 41/00 A2979 RMK A01 T04120001  RH  008%=      5-min Rain = 0
KSC1 201953Z 20017G22KT 41/M01 A2979 RMK A01 T04131013  RH  007%=      5-min Rain = 0
KSC1 201954Z 20019G24KT 41/M01 A2979 RMK A01 T04111014  RH  007%=      5-min Rain = 0
KSC1 201955Z 20019KT 41/M02 A2979 RMK A01 T04091019  RH  007%=      5-min Rain = 0
KSC1 201956Z 20012KT 41/M02 A2979 RMK A01 T04071017  RH  007%=      5-min Rain = 0
KSC1 201957Z 21008G13KT 41/M01 A2979 RMK A01 T04081007  RH  008%=      5-min Rain = 0
KSC1 201958Z 19007KT 41/M00 A2979 RMK A01 T04101004  RH  008%=      5-min Rain = 0
KSC1 201959Z 21008KT 41/M01 A2979 RMK A01 T04111006  RH  007%=      5-min Rain = 0
KSC1 202000Z 21008KT 41/M00 A2979 RMK A01 T04111003  RH  008%=      5-min Rain = 0
KSC1 202001Z 23013G19KT 41/00 A2979 RMK A01 T04120001  RH  008%=      5-min Rain = 0
KSC1 202002Z 22011G16KT 41/M00 A2979 RMK A01 T04141004  RH  007%=      5-min Rain = 0
KSC1 202003Z 23015G20KT 41/M00 A2979 RMK A01 T04141004  RH  007%=      5-min Rain = 0
KSC1 202004Z 24016G23KT 41/M01 A2979 RMK A01 T04141007  RH  007%=      5-min Rain = 0
KSC1 202005Z 23014G21KT 41/M01 A2979 RMK A01 T04141008  RH  007%=      5-min Rain = 0
KSC1 202006Z 22009KT 41/M01 A2979 RMK A01 T04141010  RH  007%=      5-min Rain = 0
KSC1 202007Z 20012G17KT 41/M02 A2979 RMK A01 T04131016  RH  007%=      5-min Rain = 0
KSC1 202008Z 20012KT 41/M02 A2979 RMK A01 T04121018  RH  007%=      5-min Rain = 0
KSC1 202009Z 21011KT 41/M02 A2979 RMK A01 T04111015  RH  007%=      5-min Rain = 0
KSC1 202010Z 23010G18KT 41/M01 A2979 RMK A01 T04111012  RH  007%=      5-min Rain = 0
KSC1 202011Z 23013KT 41/M01 A2979 RMK A01 T04121010  RH  007%=      5-min Rain = 0
KSC1 202012Z 21009G14KT 41/01 A2979 RMK A01 T04140005  RH  008%=      5-min Rain = 0
KSC1 202013Z 21010KT 42/01 A2979 RMK A01 T04160005  RH  008%=      5-min Rain = 0
KSC1 202014Z 19010G15KT 42/01 A2978 RMK A01 T04170008  RH  008%=      5-min Rain = 0
KSC1 202015Z 23015KT 42/01 A2979 RMK A01 T04180006  RH  008%=      5-min Rain = 0
KSC1 202016Z 25016G23KT 42/M01 A2979 RMK A01 T04181009  RH  007%=      5-min Rain = 0
KSC1 202017Z 25013G18KT 42/M01 A2979 RMK A01 T04151011  RH  007%=      5-min Rain = 0
KSC1 202018Z 22007G13KT 41/M00 A2978 RMK A01 T04141001  RH  008%=      5-min Rain = 0
KSC1 202019Z 24013G22KT 42/00 A2978 RMK A01 T04160002  RH  008%=      5-min Rain = 0
KSC1 202020Z 25012KT 42/M00 A2978 RMK A01 T04171001  RH  007%=      5-min Rain = 0
KSC1 202021Z 26015G21KT 42/M00 A2978 RMK A01 T04161004  RH  007%=      5-min Rain = 0
KSC1 202022Z 26008G14KT 41/M01 A2978 RMK A01 T04141008  RH  007%=      5-min Rain = 0
KSC1 202023Z 27009KT 41/M00 A2978 RMK A01 T04131003  RH  008%=      5-min Rain = 0
KSC1 202024Z 24011G16KT 41/00 A2978 RMK A01 T04130004  RH  008%=      5-min Rain = 0
KSC1 202025Z 21011KT 42/00 A2978 RMK A01 T04150004  RH  008%=      5-min Rain = 0
KSC1 202026Z 23010KT 42/01 A2978 RMK A01 T04160005  RH  008%=      5-min Rain = 0
KSC1 202027Z 23010KT 42/M00 A2978 RMK A01 T04171001  RH  007%=      5-min Rain = 0
KSC1 202028Z 24010KT 42/00 A2978 RMK A01 T04170003  RH  008%=      5-min Rain = 0
KSC1 202029Z 25011KT 42/00 A2978 RMK A01 T04170000  RH  008%=      5-min Rain = 0
KSC1 202030Z 25013KT 42/M01 A2978 RMK A01 T04161009  RH  007%=      5-min Rain = 0
KSC1 202031Z 23011KT 41/M01 A2978 RMK A01 T04141007  RH  007%=      5-min Rain = 0
KSC1 202032Z 23010KT 41/M00 A2978 RMK A01 T04141004  RH  007%=      5-min Rain = 0
KSC1 202033Z 21010KT 41/00 A2978 RMK A01 T04140003  RH  008%=      5-min Rain = 0
KSC1 202034Z 24010KT 42/01 A2978 RMK A01 T04160006  RH  008%=      5-min Rain = 0
KSC1 202035Z 21010G16KT 42/01 A2978 RMK A01 T04180007  RH  008%=      5-min Rain = 0
KSC1 202036Z 20013KT 42/00 A2978 RMK A01 T04180000  RH  008%=      5-min Rain = 0
KSC1 202037Z 20013KT 42/01 A2978 RMK A01 T04160008  RH  008%=      5-min Rain = 0
KSC1 202038Z 22012KT 42/00 A2978 RMK A01 T04160001  RH  008%=      5-min Rain = 0
KSC1 202039Z 23011KT 42/00 A2978 RMK A01 T04150001  RH  008%=      5-min Rain = 0
KSC1 202040Z 23010G15KT 41/00 A2978 RMK A01 T041400-0  RH  008%=      5-min Rain = 0
KSC1 202041Z 25012KT 41/00 A2978 RMK A01 T04140000  RH  008%=      5-min Rain = 0
KSC1 202042Z 23011KT 41/M01 A2978 RMK A01 T04141005  RH  007%=      5-min Rain = 0
KSC1 202043Z 23009KT 41/00 A2978 RMK A01 T04140001  RH  008%=      5-min Rain = 0
KSC1 202044Z 24012KT 42/M01 A2977 RMK A01 T04151007  RH  007%=      5-min Rain = 0
KSC1 202045Z 22008G13KT 41/00 A2977 RMK A01 T04140002  RH  008%=      5-min Rain = 0
KSC1 202046Z 21007G12KT 42/01 A2977 RMK A01 T04160008  RH  008%=      5-min Rain = 0
KSC1 202047Z 21011KT 42/01 A2977 RMK A01 T04170008  RH  008%=      5-min Rain = 0
KSC1 202048Z 22014G20KT 42/01 A2977 RMK A01 T04170012  RH  008%=      5-min Rain = 0
KSC1 202049Z 20016G21KT 42/01 A2977 RMK A01 T04190006  RH  008%=      5-min Rain = 0
KSC1 202050Z 21014G22KT 42/00 A2977 RMK A01 T04170001  RH  008%=      5-min Rain = 0
KSC1 202051Z 21014G19KT 42/M00 A2977 RMK A01 T04151002  RH  008%=      5-min Rain = 0
KSC1 202052Z 21016KT 41/M00 A2977 RMK A01 T04131002  RH  008%=      5-min Rain = 0
KSC1 202053Z 22012KT 41/00 A2977 RMK A01 T04120004  RH  008%=      5-min Rain = 0
KSC1 202054Z 21013G18KT 41/00 A2977 RMK A01 T04140002  RH  008%=      5-min Rain = 0
KSC1 202055Z 20014KT 41/M00 A2977 RMK A01 T04141001  RH  008%=      5-min Rain = 0
KSC1 202056Z 21013KT 41/M00 A2977 RMK A01 T04131001  RH  008%=      5-min Rain = 0
KSC1 202057Z 22014G19KT 41/00 A2977 RMK A01 T04130004  RH  008%=      5-min Rain = 0
KSC1 202058Z 21012G17KT 41/00 A2977 RMK A01 T04140002  RH  008%=      5-min Rain = 0
KSC1 202059Z 23009KT 42/01 A2977 RMK A01 T04150005  RH  008%=      5-min Rain = 0
KSC1 202100Z 23008KT 42/01 A2977 RMK A01 T04160006  RH  008%=      5-min Rain = 0
KSC1 202101Z 23008G16KT 42/01 A2977 RMK A01 T04180009  RH  008%=      5-min Rain = 0
KSC1 202102Z 26017KT 42/01 A2977 RMK A01 T04190007  RH  008%=      5-min Rain = 0
KSC1 202103Z 25014G20KT 42/01 A2977 RMK A01 T04180005  RH  008%=      5-min Rain = 0
KSC1 202104Z 26013G18KT 42/01 A2977 RMK A01 T04170006  RH  008%=      5-min Rain = 0
KSC1 202105Z 24013KT 42/M00 A2977 RMK A01 T04151002  RH  008%=      5-min Rain = 0
KSC1 202106Z 24012G17KT 41/00 A2977 RMK A01 T04140001  RH  008%=      5-min Rain = 0
KSC1 202107Z 24009KT 41/M01 A2977 RMK A01 T04131006  RH  007%=      5-min Rain = 0
KSC1 202108Z 25012KT 41/00 A2977 RMK A01 T04130002  RH  008%=      5-min Rain = 0
KSC1 202109Z 25007KT 41/01 A2977 RMK A01 T04130009  RH  008%=      5-min Rain = 0
KSC1 202110Z 24011KT 42/01 A2977 RMK A01 T04160007  RH  008%=      5-min Rain = 0
KSC1 202111Z 24008KT 42/01 A2977 RMK A01 T04170005  RH  008%=      5-min Rain = 0
KSC1 202112Z 25011KT 42/01 A2977 RMK A01 T04160005  RH  008%=      5-min Rain = 0
KSC1 202113Z 25011KT 42/01 A2977 RMK A01 T04160005  RH  008%=      5-min Rain = 0
KSC1 202114Z 23009KT 42/01 A2977 RMK A01 T04170006  RH  008%=      5-min Rain = 0
KSC1 202115Z 23008G14KT 42/00 A2976 RMK A01 T04170004  RH  008%=      5-min Rain = 0
KSC1 202116Z 23010KT 42/00 A2976 RMK A01 T04180002  RH  008%=      5-min Rain = 0
KSC1 202117Z 22011KT 42/01 A2976 RMK A01 T04180011  RH  008%=      5-min Rain = 0
KSC1 202118Z 23013G19KT 42/01 A2976 RMK A01 T04200012  RH  008%=      5-min Rain = 0
KSC1 202119Z 22012KT 42/00 A2976 RMK A01 T04200002  RH  008%=      5-min Rain = 0
KSC1 202120Z 24008G13KT 42/01 A2976 RMK A01 T04190009  RH  008%=      5-min Rain = 0
KSC1 202121Z 25011KT 42/01 A2976 RMK A01 T04200009  RH  008%=      5-min Rain = 0
KSC1 202122Z 26010KT 42/00 A2976 RMK A01 T04200004  RH  008%=      5-min Rain = 0
KSC1 202123Z 26009KT 42/M00 A2976 RMK A01 T04201001  RH  007%=      5-min Rain = 0
KSC1 202124Z 25006KT 42/M00 A2976 RMK A01 T04181004  RH  007%=      5-min Rain = 0
KSC1 202125Z 23007KT 42/01 A2976 RMK A01 T04180005  RH  008%=      5-min Rain = 0
KSC1 202126Z 24010G17KT 42/01 A2976 RMK A01 T04190005  RH  008%=      5-min Rain = 0
KSC1 202127Z 24012G17KT 42/00 A2976 RMK A01 T04200001  RH  007%=      5-min Rain = 0
KSC1 202128Z 24016G22KT 42/01 A2976 RMK A01 T04190005  RH  008%=      5-min Rain = 0
KSC1 202129Z 25016G21KT 42/M00 A2976 RMK A01 T04181003  RH  007%=      5-min Rain = 0
KSC1 202130Z 24015KT 42/M00 A2976 RMK A01 T04171003  RH  007%=      5-min Rain = 0
KSC1 202131Z 24015KT 42/M01 A2976 RMK A01 T04161006  RH  007%=      5-min Rain = 0
KSC1 202132Z 25015KT 42/M01 A2976 RMK A01 T04151011  RH  007%=      5-min Rain = 0
KSC1 202133Z 24012KT 41/M01 A2976 RMK A01 T04141006  RH  007%=      5-min Rain = 0
KSC1 202134Z 23010KT 41/M01 A2976 RMK A01 T04131006  RH  007%=      5-min Rain = 0
KSC1 202135Z 23012KT 41/00 A2976 RMK A01 T04140002  RH  008%=      5-min Rain = 0
KSC1 202136Z 22013KT 42/00 A2976 RMK A01 T04160003  RH  008%=      5-min Rain = 0
KSC1 202137Z 24013KT 41/M00 A2976 RMK A01 T04131003  RH  008%=      5-min Rain = 0
KSC1 202138Z 25010KT 41/M01 A2976 RMK A01 T04091007  RH  007%=      5-min Rain = 0
KSC1 202139Z 24007KT 41/M00 A2976 RMK A01 T04091002  RH  008%=      5-min Rain = 0
KSC1 202140Z 23007KT 41/01 A2975 RMK A01 T04120006  RH  008%=      5-min Rain = 0
KSC1 202141Z 21008KT 42/01 A2975 RMK A01 T04150007  RH  008%=      5-min Rain = 0
KSC1 202142Z 21010KT 42/00 A2975 RMK A01 T041700-0  RH  008%=      5-min Rain = 0
KSC1 202143Z 22013KT 42/00 A2975 RMK A01 T04180002  RH  008%=      5-min Rain = 0
KSC1 202144Z 23012KT 42/M00 A2975 RMK A01 T04191002  RH  007%=      5-min Rain = 0
KSC1 202145Z 22011G17KT 42/00 A2975 RMK A01 T04190002  RH  008%=      5-min Rain = 0
KSC1 202146Z 23014G20KT 42/M00 A2975 RMK A01 T04191001  RH  007%=      5-min Rain = 0
KSC1 202147Z 24015KT 42/M00 A2975 RMK A01 T04181002  RH  007%=      5-min Rain = 0
KSC1 202148Z 24013KT 42/00 A2975 RMK A01 T04170003  RH  008%=      5-min Rain = 0
KSC1 202149Z 23012KT 42/00 A2976 RMK A01 T04160002  RH  008%=      5-min Rain = 0
KSC1 202150Z 23013KT 41/M00 A2975 RMK A01 T04121002  RH  008%=      5-min Rain = 0
KSC1 202151Z 24011KT 41/M01 A2975 RMK A01 T04051012  RH  007%=      5-min Rain = 0
KSC1 202152Z 24009KT 40/M01 A2975 RMK A01 T04011012  RH  008%=      5-min Rain = 0
KSC1 202153Z 24007G15KT 40/M01 A2975 RMK A01 T03991010  RH  008%=      5-min Rain = 0
KSC1 202154Z 21007KT 40/M00 A2975 RMK A01 T04011001  RH  008%=      5-min Rain = 0
KSC1 202155Z 24007KT 41/00 A2975 RMK A01 T04060003  RH  008%=      5-min Rain = 0
KSC1 202156Z 23007G15KT 41/01 A2975 RMK A01 T04090006  RH  008%=      5-min Rain = 0
KSC1 202157Z 24012KT 41/01 A2975 RMK A01 T04130005  RH  008%=      5-min Rain = 0
KSC1 202158Z 24011KT 41/00 A2975 RMK A01 T041400-0  RH  008%=      5-min Rain = 0
KSC1 202159Z 25010KT 42/01 A2975 RMK A01 T04150008  RH  008%=      5-min Rain = 0
KSC1 202200Z 23010G15KT 42/01 A2975 RMK A01 T04170012  RH  008%=      5-min Rain = 0
KSC1 202201Z 23010KT 42/00 A2975 RMK A01 T04190001  RH  008%=      5-min Rain = 0
KSC1 202202Z 22007KT 42/00 A2975 RMK A01 T04180004  RH  008%=      5-min Rain = 0
KSC1 202203Z 22006KT 42/01 A2975 RMK A01 T04170010  RH  008%=      5-min Rain = 0
KSC1 202204Z 23006KT 42/01 A2975 RMK A01 T04200013  RH  008%=      5-min Rain = 0
KSC1 202205Z 23006KT 42/02 A2975 RMK A01 T04220021  RH  009%=      5-min Rain = 0
KSC1 202206Z 23011KT 42/01 A2975 RMK A01 T04230008  RH  008%=      5-min Rain = 0
KSC1 202207Z 21011KT 42/01 A2975 RMK A01 T04200008  RH  008%=      5-min Rain = 0
KSC1 202208Z 20014KT 42/01 A2975 RMK A01 T04190008  RH  008%=      5-min Rain = 0
KSC1 202209Z 20012G18KT 42/01 A2975 RMK A01 T04180010  RH  008%=      5-min Rain = 0
KSC1 202210Z 19015KT 42/06 A2975 RMK A01 T04180059  RH  011%=      5-min Rain = 0
KSC1 202211Z 19012KT 41/09 A2975 RMK A01 T04100085  RH  014%=      5-min Rain = 0
KSC1 202212Z 20013G18KT 40/08 A2975 RMK A01 T04020084  RH  015%=      5-min Rain = 0
KSC1 202213Z 20013KT 40/06 A2975 RMK A01 T04010064  RH  013%=      5-min Rain = 0
KSC1 202214Z 20014KT 40/03 A2975 RMK A01 T04040030  RH  010%=      5-min Rain = 0
KSC1 202215Z 19012KT 41/01 A2975 RMK A01 T04060011  RH  009%=      5-min Rain = 0
KSC1 202216Z 19010KT 41/00 A2975 RMK A01 T04060002  RH  008%=      5-min Rain = 0
KSC1 202217Z 19010KT 41/00 A2975 RMK A01 T04050004  RH  008%=      5-min Rain = 0
KSC1 202218Z 20007KT 40/01 A2975 RMK A01 T04030005  RH  008%=      5-min Rain = 0
KSC1 202219Z 22008G13KT 40/01 A2975 RMK A01 T04010006  RH  009%=      5-min Rain = 0
KSC1 202220Z 20007KT 40/01 A2975 RMK A01 T03990005  RH  009%=      5-min Rain = 0
KSC1 202221Z 20013KT 40/05 A2975 RMK A01 T03970048  RH  012%=      5-min Rain = 0
KSC1 202222Z 19013KT 40/08 A2975 RMK A01 T03960084  RH  015%=      5-min Rain = 0
KSC1 202223Z 19009KT 40/09 A2975 RMK A01 T03960092  RH  016%=      5-min Rain = 0
KSC1 202224Z 18008KT 40/10 A2975 RMK A01 T04000098  RH  016%=      5-min Rain = 0
KSC1 202225Z 16012KT 40/10 A2975 RMK A01 T04020098  RH  016%=      5-min Rain = 0
KSC1 202226Z 16010KT 41/10 A2975 RMK A01 T04050098  RH  016%=      5-min Rain = 0
KSC1 202227Z 16011KT 41/10 A2975 RMK A01 T04060099  RH  016%=      5-min Rain = 0
KSC1 202228Z 15008KT 41/08 A2975 RMK A01 T04050084  RH  015%=      5-min Rain = 0
KSC1 202229Z 21005KT 41/09 A2975 RMK A01 T04050090  RH  015%=      5-min Rain = 0
KSC1 202230Z 24006G11KT 41/07 A2975 RMK A01 T04080070  RH  013%=      5-min Rain = 0
KSC1 202231Z 21010KT 41/03 A2975 RMK A01 T04120033  RH  010%=      5-min Rain = 0
KSC1 202232Z 22009KT 42/03 A2975 RMK A01 T04160025  RH  009%=      5-min Rain = 0
KSC1 202233Z 23010KT 42/00 A2975 RMK A01 T04160001  RH  008%=      5-min Rain = 0
KSC1 202234Z 22009KT 41/00 A2975 RMK A01 T04140002  RH  008%=      5-min Rain = 0
KSC1 202235Z 21008G13KT 41/01 A2975 RMK A01 T04140006  RH  008%=      5-min Rain = 0
KSC1 202236Z 20009KT 41/01 A2975 RMK A01 T04140008  RH  008%=      5-min Rain = 0
KSC1 202237Z 20012KT 42/01 A2975 RMK A01 T04150009  RH  008%=      5-min Rain = 0
KSC1 202238Z 22013KT 42/01 A2975 RMK A01 T04150007  RH  008%=      5-min Rain = 0
KSC1 202239Z 21015G20KT 42/02 A2975 RMK A01 T04150022  RH  009%=      5-min Rain = 0
KSC1 202240Z 20015KT 41/07 A2975 RMK A01 T04110070  RH  013%=      5-min Rain = 0
KSC1 202241Z 18015KT 41/09 A2975 RMK A01 T04060086  RH  015%=      5-min Rain = 0
KSC1 202242Z 17014G19KT 40/10 A2975 RMK A01 T04020096  RH  016%=      5-min Rain = 0
KSC1 202243Z 17012KT 40/10 A2975 RMK A01 T03960100  RH  017%=      5-min Rain = 0
KSC1 202244Z 17010KT 39/10 A2975 RMK A01 T03920103  RH  018%=      5-min Rain = 0
KSC1 202245Z 17011KT 39/10 A2975 RMK A01 T03900102  RH  018%=      5-min Rain = 0
KSC1 202246Z 17012KT 39/10 A2975 RMK A01 T03920103  RH  018%=      5-min Rain = 0
KSC1 202247Z 17011KT 40/10 A2975 RMK A01 T03950101  RH  017%=      5-min Rain = 0
KSC1 202248Z 18014G20KT 40/10 A2975 RMK A01 T03980101  RH  017%=      5-min Rain = 0
KSC1 202249Z 18015G20KT 40/10 A2975 RMK A01 T03990096  RH  016%=      5-min Rain = 0
KSC1 202250Z 17013KT 40/10 A2975 RMK A01 T03990095  RH  016%=      5-min Rain = 0
KSC1 202251Z 17013KT 40/10 A2975 RMK A01 T03980096  RH  016%=      5-min Rain = 0
KSC1 202252Z 18013KT 40/09 A2975 RMK A01 T03990094  RH  016%=      5-min Rain = 0
KSC1 202253Z 18012KT 40/09 A2975 RMK A01 T03990094  RH  016%=      5-min Rain = 0
KSC1 202254Z 16013KT 40/09 A2975 RMK A01 T03960092  RH  016%=      5-min Rain = 0
KSC1 202255Z 16013KT 39/09 A2975 RMK A01 T03930090  RH  016%=      5-min Rain = 0
KSC1 202256Z 16011KT 39/09 A2974 RMK A01 T03930091  RH  016%=      5-min Rain = 0
KSC1 202257Z 16013KT 40/09 A2974 RMK A01 T03950092  RH  016%=      5-min Rain = 0
KSC1 202258Z 16015KT 40/09 A2974 RMK A01 T03970090  RH  016%=      5-min Rain = 0
KSC1 202259Z 16013KT 40/09 A2974 RMK A01 T03980089  RH  016%=      5-min Rain = 0
KSC1 202300Z 16013KT 40/09 A2974 RMK A01 T03970089  RH  016%=      5-min Rain = 0
KSC1 202301Z 18011KT 40/09 A2974 RMK A01 T03960091  RH  016%=      5-min Rain = 0
KSC1 202302Z 17011KT 40/09 A2974 RMK A01 T03960093  RH  016%=      5-min Rain = 0
KSC1 202303Z 16011G17KT 40/10 A2974 RMK A01 T03970097  RH  017%=      5-min Rain = 0
KSC1 202304Z 17011KT 40/09 A2974 RMK A01 T03980094  RH  016%=      5-min Rain = 0
KSC1 202305Z 15009KT 40/10 A2974 RMK A01 T03990097  RH  016%=      5-min Rain = 0
KSC1 202306Z 16012G18KT 40/10 A2974 RMK A01 T04010096  RH  016%=      5-min Rain = 0
KSC1 202307Z 17014KT 40/09 A2974 RMK A01 T04010092  RH  016%=      5-min Rain = 0
KSC1 202308Z 17015KT 40/09 A2974 RMK A01 T04000093  RH  016%=      5-min Rain = 0
KSC1 202309Z 17012KT 40/09 A2974 RMK A01 T03980090  RH  016%=      5-min Rain = 0
KSC1 202310Z 18011G16KT 40/09 A2974 RMK A01 T03970094  RH  016%=      5-min Rain = 0
KSC1 202311Z 18013KT 40/10 A2974 RMK A01 T03980095  RH  016%=      5-min Rain = 0
KSC1 202312Z 18011G16KT 40/10 A2974 RMK A01 T03980097  RH  016%=      5-min Rain = 0
KSC1 202313Z 18014KT 40/10 A2974 RMK A01 T03990095  RH  016%=      5-min Rain = 0
KSC1 202314Z 18014KT 40/10 A2974 RMK A01 T03990095  RH  016%=      5-min Rain = 0
KSC1 202315Z 16018KT 40/09 A2974 RMK A01 T03980094  RH  016%=      5-min Rain = 0
KSC1 202316Z 17014KT 40/09 A2974 RMK A01 T03970092  RH  016%=      5-min Rain = 0
KSC1 202317Z 17009KT 40/10 A2974 RMK A01 T03960096  RH  017%=      5-min Rain = 0
KSC1 202318Z 17010KT 40/10 A2974 RMK A01 T03960096  RH  016%=      5-min Rain = 0
KSC1 202319Z 18009KT 40/10 A2974 RMK A01 T03970099  RH  017%=      5-min Rain = 0
KSC1 202320Z 18009KT 40/10 A2974 RMK A01 T03990102  RH  017%=      5-min Rain = 0
KSC1 202321Z 17015G22KT 40/10 A2974 RMK A01 T04000100  RH  017%=      5-min Rain = 0
KSC1 202322Z 18014KT 40/09 A2974 RMK A01 T03990093  RH  016%=      5-min Rain = 0
KSC1 202323Z 17015KT 40/09 A2974 RMK A01 T03960093  RH  016%=      5-min Rain = 0
KSC1 202324Z 18014KT 39/09 A2974 RMK A01 T03920092  RH  016%=      5-min Rain = 0
KSC1 202325Z 18017G24KT 39/09 A2974 RMK A01 T03890094  RH  017%=      5-min Rain = 0
KSC1 202326Z 18018KT 39/10 A2974 RMK A01 T03880097  RH  017%=      5-min Rain = 0
KSC1 202327Z 17018KT 39/10 A2974 RMK A01 T03890100  RH  018%=      5-min Rain = 0
KSC1 202328Z 18016KT 39/10 A2974 RMK A01 T03910100  RH  018%=      5-min Rain = 0
KSC1 202329Z 17016G21KT 39/10 A2974 RMK A01 T03920102  RH  018%=      5-min Rain = 0
KSC1 202330Z 18015KT 39/10 A2974 RMK A01 T03930102  RH  018%=      5-min Rain = 0
KSC1 202331Z 16014KT 39/10 A2974 RMK A01 T03930102  RH  018%=      5-min Rain = 0
KSC1 202332Z 16016G21KT 39/10 A2974 RMK A01 T03930103  RH  018%=      5-min Rain = 0
KSC1 202333Z 16015G20KT 39/10 A2974 RMK A01 T03930103  RH  018%=      5-min Rain = 0
KSC1 202334Z 16017G24KT 39/10 A2974 RMK A01 T03930103  RH  018%=      5-min Rain = 0
KSC1 202335Z 16016G21KT 39/10 A2974 RMK A01 T03920103  RH  018%=      5-min Rain = 0
KSC1 202336Z 16014KT 39/10 A2974 RMK A01 T03920104  RH  018%=      5-min Rain = 0
KSC1 202337Z 17012G17KT 39/11 A2974 RMK A01 T03910107  RH  018%=      5-min Rain = 0
KSC1 202338Z 17013G18KT 39/11 A2974 RMK A01 T03920109  RH  018%=      5-min Rain = 0
KSC1 202339Z 18014KT 39/11 A2974 RMK A01 T03920106  RH  018%=      5-min Rain = 0
KSC1 202340Z 17011G17KT 39/11 A2974 RMK A01 T03920109  RH  018%=      5-min Rain = 0
KSC1 202341Z 16013KT 39/11 A2974 RMK A01 T03920110  RH  019%=      5-min Rain = 0
KSC1 202342Z 17012KT 39/11 A2974 RMK A01 T03920108  RH  018%=      5-min Rain = 0
KSC1 202343Z 17015KT 39/11 A2974 RMK A01 T03920109  RH  018%=      5-min Rain = 0
KSC1 202344Z 17015G21KT 39/11 A2974 RMK A01 T03910107  RH  018%=      5-min Rain = 0
KSC1 202345Z 17014G20KT 39/11 A2974 RMK A01 T03900106  RH  018%=      5-min Rain = 0
KSC1 202346Z 17014KT 39/11 A2974 RMK A01 T03900107  RH  018%=      5-min Rain = 0
KSC1 202347Z 17011G17KT 39/11 A2974 RMK A01 T03890108  RH  019%=      5-min Rain = 0
KSC1 202348Z 17014KT 39/11 A2974 RMK A01 T03870108  RH  019%=      5-min Rain = 0
KSC1 202349Z 17015G20KT 38/11 A2974 RMK A01 T03830105  RH  019%=      5-min Rain = 0
KSC1 202350Z 16013KT 38/11 A2974 RMK A01 T03800105  RH  019%=      5-min Rain = 0
KSC1 202351Z 16009KT 38/11 A2974 RMK A01 T03780106  RH  019%=      5-min Rain = 0
KSC1 202352Z 17012KT 38/11 A2974 RMK A01 T03770108  RH  020%=      5-min Rain = 0
KSC1 202353Z 17013KT 38/11 A2974 RMK A01 T03750106  RH  020%=      5-min Rain = 0
KSC1 202354Z 17014KT 38/11 A2974 RMK A01 T03750107  RH  020%=      5-min Rain = 0
KSC1 202355Z 17012KT 38/11 A2974 RMK A01 T03750108  RH  020%=      5-min Rain = 0
KSC1 202356Z 18010KT 37/11 A2974 RMK A01 T03740108  RH  020%=      5-min Rain = 0
KSC1 202357Z 17011KT 37/11 A2974 RMK A01 T03740108  RH  020%=      5-min Rain = 0
KSC1 202358Z 17012KT 38/11 A2974 RMK A01 T03760108  RH  020%=      5-min Rain = 0
KSC1 202359Z 17014G19KT 38/11 A2974 RMK A01 T03800109  RH  020%=      5-min Rain = 0
KSC1 210000Z 18016G21KT 38/11 A2974 RMK A01 T03830106  RH  019%=      5-min Rain = 0
KSC1 210001Z 18017KT 38/11 A2974 RMK A01 T03840106  RH  019%=      5-min Rain = 0
KSC1 210002Z 18017KT 39/11 A2974 RMK A01 T03850105  RH  019%=      5-min Rain = 0
KSC1 210003Z 18015KT 39/11 A2974 RMK A01 T03860105  RH  019%=      5-min Rain = 0
KSC1 210004Z 18015G20KT 39/11 A2974 RMK A01 T03860105  RH  019%=      5-min Rain = 0
KSC1 210005Z 17015KT 39/10 A2974 RMK A01 T03860104  RH  018%=      5-min Rain = 0
KSC1 210006Z 18018G24KT 39/10 A2974 RMK A01 T03860104  RH  018%=      5-min Rain = 0
KSC1 210007Z 18016G23KT 38/10 A2974 RMK A01 T03840104  RH  019%=      5-min Rain = 0
KSC1 210008Z 17016KT 38/11 A2974 RMK A01 T03810107  RH  019%=      5-min Rain = 0
KSC1 210009Z 17014KT 38/11 A2974 RMK A01 T03780108  RH  020%=      5-min Rain = 0
KSC1 210010Z 17017KT 38/11 A2974 RMK A01 T03760109  RH  020%=      5-min Rain = 0
KSC1 210011Z 17012G18KT 38/11 A2974 RMK A01 T03760111  RH  020%=      5-min Rain = 0
KSC1 210012Z 18008KT 38/11 A2974 RMK A01 T03770114  RH  021%=      5-min Rain = 0
KSC1 210013Z 17010KT 38/12 A2974 RMK A01 T03780116  RH  021%=      5-min Rain = 0
KSC1 210014Z 18012KT 38/12 A2974 RMK A01 T03790115  RH  021%=      5-min Rain = 0
KSC1 210015Z 17010KT 38/12 A2974 RMK A01 T03800117  RH  021%=      5-min Rain = 0
KSC1 210016Z 18013KT 38/12 A2974 RMK A01 T03800118  RH  021%=      5-min Rain = 0
KSC1 210017Z 18016KT 38/12 A2974 RMK A01 T03800118  RH  021%=      5-min Rain = 0
KSC1 210018Z 18014KT 38/12 A2974 RMK A01 T03800120  RH  021%=      5-min Rain = 0
KSC1 210019Z 17010KT 38/12 A2974 RMK A01 T03790122  RH  021%=      5-min Rain = 0
KSC1 210020Z 17015G21KT 38/13 A2974 RMK A01 T03790125  RH  022%=      5-min Rain = 0
KSC1 210021Z 18016KT 38/13 A2974 RMK A01 T03790125  RH  022%=      5-min Rain = 0
KSC1 210022Z 18018G24KT 38/13 A2974 RMK A01 T03780125  RH  022%=      5-min Rain = 0
KSC1 210023Z 18016KT 38/13 A2974 RMK A01 T03770126  RH  022%=      5-min Rain = 0
KSC1 210024Z 18013KT 38/13 A2974 RMK A01 T03770128  RH  023%=      5-min Rain = 0
KSC1 210025Z 17014G19KT 38/13 A2974 RMK A01 T03770128  RH  023%=      5-min Rain = 0
KSC1 210026Z 18014KT 38/13 A2974 RMK A01 T03770128  RH  023%=      5-min Rain = 0
KSC1 210027Z 17014G20KT 38/13 A2974 RMK A01 T03760126  RH  023%=      5-min Rain = 0
KSC1 210028Z 17014KT 38/13 A2974 RMK A01 T03750127  RH  023%=      5-min Rain = 0
KSC1 210029Z 17011G16KT 37/13 A2974 RMK A01 T03740127  RH  023%=      5-min Rain = 0
KSC1 210030Z 17013KT 37/13 A2974 RMK A01 T03730126  RH  023%=      5-min Rain = 0
KSC1 210031Z 17014KT 37/12 A2974 RMK A01 T03720124  RH  023%=      5-min Rain = 0
KSC1 210032Z 17015KT 37/12 A2974 RMK A01 T03720124  RH  023%=      5-min Rain = 0
KSC1 210033Z 18015KT 37/12 A2974 RMK A01 T03720123  RH  023%=      5-min Rain = 0
KSC1 210034Z 17015G20KT 37/12 A2974 RMK A01 T03720122  RH  022%=      5-min Rain = 0
KSC1 210035Z 17014KT 37/12 A2974 RMK A01 T03720120  RH  022%=      5-min Rain = 0
KSC1 210036Z 17011G16KT 37/12 A2974 RMK A01 T03730120  RH  022%=      5-min Rain = 0
KSC1 210037Z 18017KT 37/12 A2974 RMK A01 T03730119  RH  022%=      5-min Rain = 0
KSC1 210038Z 17015G22KT 37/12 A2974 RMK A01 T03730116  RH  021%=      5-min Rain = 0
KSC1 210039Z 18017KT 37/11 A2974 RMK A01 T03730114  RH  021%=      5-min Rain = 0
KSC1 210040Z 18016G22KT 37/11 A2974 RMK A01 T03730114  RH  021%=      5-min Rain = 0
KSC1 210041Z 17016G21KT 37/12 A2974 RMK A01 T03730115  RH  021%=      5-min Rain = 0
KSC1 210042Z 17016KT 37/12 A2974 RMK A01 T03730116  RH  021%=      5-min Rain = 0
KSC1 210043Z 17013KT 37/12 A2975 RMK A01 T03730116  RH  021%=      5-min Rain = 0
KSC1 210044Z 17016KT 37/12 A2975 RMK A01 T03730117  RH  021%=      5-min Rain = 0
KSC1 210045Z 17016KT 37/12 A2975 RMK A01 T03730116  RH  021%=      5-min Rain = 0
KSC1 210046Z 17013KT 37/12 A2975 RMK A01 T03730115  RH  021%=      5-min Rain = 0
KSC1 210047Z 17017KT 37/12 A2975 RMK A01 T03720116  RH  021%=      5-min Rain = 0
KSC1 210048Z 17014KT 37/12 A2975 RMK A01 T03710115  RH  021%=      5-min Rain = 0
KSC1 210049Z 18011KT 37/12 A2975 RMK A01 T03700115  RH  022%=      5-min Rain = 0
KSC1 210050Z 17011KT 37/12 A2975 RMK A01 T03690116  RH  022%=      5-min Rain = 0
KSC1 210051Z 18011KT 37/12 A2975 RMK A01 T03670116  RH  022%=      5-min Rain = 0
KSC1 210052Z 17013G18KT 37/12 A2975 RMK A01 T03660115  RH  022%=      5-min Rain = 0
KSC1 210053Z 17013KT 37/11 A2975 RMK A01 T03650113  RH  022%=      5-min Rain = 0
KSC1 210054Z 17013KT 37/11 A2975 RMK A01 T03650113  RH  022%=      5-min Rain = 0
KSC1 210055Z 17011KT 37/11 A2975 RMK A01 T03660113  RH  022%=      5-min Rain = 0
KSC1 210056Z 17011KT 37/11 A2975 RMK A01 T03660113  RH  022%=      5-min Rain = 0
KSC1 210057Z 18011KT 37/11 A2975 RMK A01 T03660114  RH  022%=      5-min Rain = 0
KSC1 210058Z 17009KT 37/11 A2975 RMK A01 T03650114  RH  022%=      5-min Rain = 0
KSC1 210059Z 17011G16KT 37/12 A2975 RMK A01 T03650116  RH  022%=      5-min Rain = 0
KSC1 210100Z 16011KT 36/12 A2975 RMK A01 T03640120  RH  023%=      5-min Rain = 0
KSC1 210101Z 17011KT 36/12 A2975 RMK A01 T03630122  RH  023%=      5-min Rain = 0
KSC1 210102Z 16012G17KT 36/12 A2975 RMK A01 T03620122  RH  024%=      5-min Rain = 0
KSC1 210103Z 17015G20KT 36/13 A2975 RMK A01 T03620125  RH  024%=      5-min Rain = 0
KSC1 210104Z 17014KT 36/13 A2975 RMK A01 T03620128  RH  025%=      5-min Rain = 0
KSC1 210105Z 17013KT 36/13 A2975 RMK A01 T03620130  RH  025%=      5-min Rain = 0
KSC1 210106Z 17010G15KT 36/13 A2975 RMK A01 T03620131  RH  025%=      5-min Rain = 0
KSC1 210107Z 17012KT 36/13 A2975 RMK A01 T03600132  RH  025%=      5-min Rain = 0
KSC1 210108Z 17013KT 36/13 A2975 RMK A01 T03590133  RH  026%=      5-min Rain = 0
KSC1 210109Z 17013KT 36/13 A2975 RMK A01 T03590133  RH  026%=      5-min Rain = 0
KSC1 210110Z 16013KT 36/13 A2975 RMK A01 T03580133  RH  026%=      5-min Rain = 0
KSC1 210111Z 17011KT 36/13 A2975 RMK A01 T03580133  RH  026%=      5-min Rain = 0
KSC1 210112Z 17009KT 36/13 A2975 RMK A01 T03570134  RH  026%=      5-min Rain = 0
KSC1 210113Z 17012KT 36/13 A2975 RMK A01 T03550134  RH  027%=      5-min Rain = 0
KSC1 210114Z 17011KT 36/14 A2975 RMK A01 T03550135  RH  027%=      5-min Rain = 0
KSC1 210115Z 16013G19KT 35/13 A2975 RMK A01 T03540134  RH  027%=      5-min Rain = 0
KSC1 210116Z 17014KT 36/13 A2975 RMK A01 T03550134  RH  027%=      5-min Rain = 0
KSC1 210117Z 17009KT 36/13 A2975 RMK A01 T03550134  RH  027%=      5-min Rain = 0
KSC1 210118Z 17013KT 36/14 A2975 RMK A01 T03550135  RH  027%=      5-min Rain = 0
KSC1 210119Z 17013KT 36/14 A2975 RMK A01 T03550135  RH  027%=      5-min Rain = 0
KSC1 210120Z 17011KT 36/14 A2975 RMK A01 T03550135  RH  027%=      5-min Rain = 0
KSC1 210121Z 17009KT 35/14 A2975 RMK A01 T03540136  RH  027%=      5-min Rain = 0
KSC1 210122Z 17009KT 35/14 A2975 RMK A01 T03540136  RH  027%=      5-min Rain = 0
KSC1 210123Z 17011KT 35/14 A2975 RMK A01 T03530136  RH  027%=      5-min Rain = 0
KSC1 210124Z 17013G18KT 35/14 A2975 RMK A01 T03530136  RH  027%=      5-min Rain = 0
KSC1 210125Z 17011G16KT 35/14 A2975 RMK A01 T03530136  RH  027%=      5-min Rain = 0
KSC1 210126Z 17013KT 35/14 A2975 RMK A01 T03520136  RH  027%=      5-min Rain = 0
KSC1 210127Z 17011KT 35/14 A2975 RMK A01 T03520137  RH  027%=      5-min Rain = 0
KSC1 210128Z 17008KT 35/14 A2975 RMK A01 T03520138  RH  028%=      5-min Rain = 0
KSC1 210129Z 16009KT 35/14 A2975 RMK A01 T03500138  RH  028%=      5-min Rain = 0
KSC1 210130Z 17008KT 35/14 A2975 RMK A01 T03490138  RH  028%=      5-min Rain = 0
KSC1 210131Z 17011KT 35/14 A2976 RMK A01 T03480138  RH  028%=      5-min Rain = 0
KSC1 210132Z 16010KT 35/14 A2975 RMK A01 T03470138  RH  028%=      5-min Rain = 0
KSC1 210133Z 16008KT 35/14 A2975 RMK A01 T03470139  RH  029%=      5-min Rain = 0
KSC1 210134Z 16009KT 35/14 A2976 RMK A01 T03460139  RH  029%=      5-min Rain = 0
KSC1 210135Z 16010KT 35/14 A2975 RMK A01 T03450139  RH  029%=      5-min Rain = 0
KSC1 210136Z 16009G14KT 35/14 A2976 RMK A01 T03450139  RH  029%=      5-min Rain = 0
KSC1 210137Z 16008KT 34/14 A2976 RMK A01 T03440140  RH  029%=      5-min Rain = 0
KSC1 210138Z 16009KT 34/14 A2976 RMK A01 T03440141  RH  029%=      5-min Rain = 0
KSC1 210139Z 16008KT 34/14 A2976 RMK A01 T03430140  RH  030%=      5-min Rain = 0
KSC1 210140Z 16008KT 34/14 A2976 RMK A01 T03420141  RH  030%=      5-min Rain = 0
KSC1 210141Z 17008KT 34/14 A2976 RMK A01 T03410141  RH  030%=      5-min Rain = 0
KSC1 210142Z 17009KT 34/14 A2976 RMK A01 T03400142  RH  030%=      5-min Rain = 0
KSC1 210143Z 17009KT 34/14 A2976 RMK A01 T03390142  RH  031%=      5-min Rain = 0
KSC1 210144Z 17010KT 34/14 A2976 RMK A01 T03380143  RH  031%=      5-min Rain = 0
KSC1 210145Z 17009KT 34/14 A2976 RMK A01 T03380144  RH  031%=      5-min Rain = 0
KSC1 210146Z 16011KT 34/14 A2976 RMK A01 T03360144  RH  031%=      5-min Rain = 0
KSC1 210147Z 16011KT 34/15 A2976 RMK A01 T03360145  RH  032%=      5-min Rain = 0
KSC1 210148Z 16010KT 34/15 A2976 RMK A01 T03360145  RH  032%=      5-min Rain = 0
KSC1 210149Z 16010KT 34/15 A2976 RMK A01 T03370146  RH  032%=      5-min Rain = 0
KSC1 210150Z 17012KT 34/15 A2976 RMK A01 T03360146  RH  032%=      5-min Rain = 0
KSC1 210151Z 16011KT 34/15 A2976 RMK A01 T03370147  RH  032%=      5-min Rain = 0
KSC1 210152Z 16009KT 34/15 A2976 RMK A01 T03370148  RH  032%=      5-min Rain = 0
KSC1 210153Z 16012G17KT 34/15 A2976 RMK A01 T03360148  RH  032%=      5-min Rain = 0
KSC1 210154Z 17012KT 34/15 A2976 RMK A01 T03350149  RH  033%=      5-min Rain = 0
KSC1 210155Z 16010KT 34/15 A2976 RMK A01 T03360149  RH  033%=      5-min Rain = 0
KSC1 210156Z 16011KT 34/15 A2976 RMK A01 T03360150  RH  033%=      5-min Rain = 0
KSC1 210157Z 17012KT 34/15 A2976 RMK A01 T03360150  RH  033%=      5-min Rain = 0
KSC1 210158Z 17011KT 34/15 A2976 RMK A01 T03360150  RH  033%=      5-min Rain = 0
KSC1 210159Z 16009G15KT 34/15 A2976 RMK A01 T03360151  RH  033%=      5-min Rain = 0
KSC1 210200Z 16011G16KT 34/15 A2976 RMK A01 T03360151  RH  033%=      5-min Rain = 0
KSC1 210201Z 16012KT 34/15 A2976 RMK A01 T03350151  RH  033%=      5-min Rain = 0
KSC1 210202Z 16011KT 34/15 A2976 RMK A01 T03350152  RH  033%=      5-min Rain = 0
KSC1 210203Z 16012KT 34/15 A2976 RMK A01 T03350152  RH  033%=      5-min Rain = 0
KSC1 210204Z 16011KT 33/15 A2976 RMK A01 T03340152  RH  033%=      5-min Rain = 0
KSC1 210205Z 16014KT 34/15 A2976 RMK A01 T03350152  RH  033%=      5-min Rain = 0
KSC1 210206Z 16012KT 34/15 A2976 RMK A01 T03350152  RH  033%=      5-min Rain = 0
KSC1 210207Z 17013KT 34/15 A2976 RMK A01 T03350151  RH  033%=      5-min Rain = 0
KSC1 210208Z 17011KT 34/15 A2976 RMK A01 T03350152  RH  033%=      5-min Rain = 0
KSC1 210209Z 17011G16KT 34/15 A2977 RMK A01 T03350152  RH  033%=      5-min Rain = 0
KSC1 210210Z 17012KT 33/15 A2976 RMK A01 T03340152  RH  034%=      5-min Rain = 0
KSC1 210211Z 17012KT 33/15 A2976 RMK A01 T03340152  RH  034%=      5-min Rain = 0
KSC1 210212Z 16010G15KT 33/15 A2977 RMK A01 T03330152  RH  034%=      5-min Rain = 0
KSC1 210213Z 17011KT 33/15 A2977 RMK A01 T03330152  RH  034%=      5-min Rain = 0
KSC1 210214Z 16011KT 33/15 A2977 RMK A01 T03320152  RH  034%=      5-min Rain = 0
KSC1 210215Z 17011KT 33/15 A2977 RMK A01 T03320152  RH  034%=      5-min Rain = 0
KSC1 210216Z 17010KT 33/15 A2977 RMK A01 T03310152  RH  034%=      5-min Rain = 0
KSC1 210217Z 16010KT 33/15 A2977 RMK A01 T03310152  RH  034%=      5-min Rain = 0
KSC1 210218Z 16011KT 33/15 A2977 RMK A01 T03300152  RH  034%=      5-min Rain = 0
KSC1 210219Z 17014KT 33/15 A2977 RMK A01 T03300152  RH  034%=      5-min Rain = 0
KSC1 210220Z 17011G16KT 33/15 A2977 RMK A01 T03300151  RH  034%=      5-min Rain = 0
KSC1 210221Z 17010KT 33/15 A2977 RMK A01 T03300151  RH  034%=      5-min Rain = 0
KSC1 210222Z 17010KT 33/15 A2977 RMK A01 T03300152  RH  034%=      5-min Rain = 0
KSC1 210223Z 17011KT 33/15 A2977 RMK A01 T03290152  RH  034%=      5-min Rain = 0
KSC1 210224Z 17011KT 33/15 A2977 RMK A01 T03290151  RH  034%=      5-min Rain = 0
KSC1 210225Z 17010G15KT 33/15 A2977 RMK A01 T03290152  RH  034%=      5-min Rain = 0
KSC1 210226Z 17012KT 33/15 A2977 RMK A01 T03290152  RH  035%=      5-min Rain = 0
KSC1 210227Z 17011KT 33/15 A2977 RMK A01 T03280152  RH  035%=      5-min Rain = 0
KSC1 210228Z 17012KT 33/15 A2977 RMK A01 T03280152  RH  035%=      5-min Rain = 0
KSC1 210229Z 17011KT 33/15 A2977 RMK A01 T03270152  RH  035%=      5-min Rain = 0
KSC1 210230Z 17011KT 33/15 A2977 RMK A01 T03270153  RH  035%=      5-min Rain = 0
KSC1 210231Z 17009KT 33/15 A2977 RMK A01 T03260153  RH  035%=      5-min Rain = 0
KSC1 210232Z 17009KT 33/15 A2977 RMK A01 T03260153  RH  035%=      5-min Rain = 0
KSC1 210233Z 17010KT 33/15 A2977 RMK A01 T03250154  RH  036%=      5-min Rain = 0
KSC1 210234Z 17011KT 32/15 A2977 RMK A01 T03240154  RH  036%=      5-min Rain = 0
KSC1 210235Z 17013KT 32/15 A2977 RMK A01 T03240154  RH  036%=      5-min Rain = 0
KSC1 210236Z 16010KT 32/15 A2977 RMK A01 T03240154  RH  036%=      5-min Rain = 0
KSC1 210237Z 17011KT 32/16 A2977 RMK A01 T03240155  RH  036%=      5-min Rain = 0
KSC1 210238Z 17011KT 32/16 A2977 RMK A01 T03240155  RH  036%=      5-min Rain = 0
KSC1 210239Z 16011KT 32/16 A2977 RMK A01 T03240156  RH  036%=      5-min Rain = 0
KSC1 210240Z 17009KT 32/16 A2977 RMK A01 T03230156  RH  037%=      5-min Rain = 0
KSC1 210241Z 16010KT 32/16 A2977 RMK A01 T03230156  RH  037%=      5-min Rain = 0
KSC1 210242Z 16011KT 32/16 A2977 RMK A01 T03220157  RH  037%=      5-min Rain = 0
KSC1 210243Z 16012KT 32/16 A2977 RMK A01 T03220157  RH  037%=      5-min Rain = 0
KSC1 210244Z 16011KT 32/16 A2977 RMK A01 T03220158  RH  037%=      5-min Rain = 0
KSC1 210245Z 17011KT 32/16 A2977 RMK A01 T03230159  RH  037%=      5-min Rain = 0
KSC1 210246Z 17011KT 32/16 A2978 RMK A01 T03220159  RH  037%=      5-min Rain = 0
KSC1 210247Z 17014KT 32/16 A2978 RMK A01 T03220159  RH  038%=      5-min Rain = 0
KSC1 210248Z 17013KT 32/16 A2978 RMK A01 T03220160  RH  038%=      5-min Rain = 0
KSC1 210249Z 17010KT 32/16 A2978 RMK A01 T03210161  RH  038%=      5-min Rain = 0
KSC1 210250Z 16010KT 32/16 A2978 RMK A01 T03210161  RH  038%=      5-min Rain = 0
KSC1 210251Z 16010KT 32/16 A2978 RMK A01 T03200162  RH  039%=      5-min Rain = 0
KSC1 210252Z 16012KT 32/16 A2978 RMK A01 T03200162  RH  039%=      5-min Rain = 0
KSC1 210253Z 17009KT 32/16 A2978 RMK A01 T03190162  RH  039%=      5-min Rain = 0
KSC1 210254Z 16011KT 32/16 A2978 RMK A01 T03190162  RH  039%=      5-min Rain = 0
KSC1 210255Z 17009G15KT 32/16 A2978 RMK A01 T03180163  RH  039%=      5-min Rain = 0
KSC1 210256Z 17010G15KT 32/16 A2978 RMK A01 T03180163  RH  039%=      5-min Rain = 0
KSC1 210257Z 17012KT 32/16 A2978 RMK A01 T03180163  RH  039%=      5-min Rain = 0
KSC1 210258Z 16011KT 32/16 A2978 RMK A01 T03190164  RH  039%=      5-min Rain = 0
KSC1 210259Z 17011KT 32/16 A2978 RMK A01 T03190164  RH  039%=      5-min Rain = 0
KSC1 210300Z 16013KT 32/16 A2978 RMK A01 T03190164  RH  040%=      5-min Rain = 0
KSC1 210301Z 16012G17KT 32/16 A2978 RMK A01 T03190164  RH  039%=      5-min Rain = 0
KSC1 210302Z 16012KT 32/17 A2978 RMK A01 T03190165  RH  040%=      5-min Rain = 0
KSC1 210303Z 17010KT 32/17 A2978 RMK A01 T03190165  RH  040%=      5-min Rain = 0
KSC1 210304Z 16011KT 32/17 A2978 RMK A01 T03180165  RH  040%=      5-min Rain = 0
KSC1 210305Z 17009KT 32/17 A2978 RMK A01 T03180165  RH  040%=      5-min Rain = 0
KSC1 210306Z 17010KT 32/17 A2978 RMK A01 T03180165  RH  040%=      5-min Rain = 0
KSC1 210307Z 17008KT 32/17 A2978 RMK A01 T03170165  RH  040%=      5-min Rain = 0
KSC1 210308Z 17010KT 32/17 A2978 RMK A01 T03160165  RH  040%=      5-min Rain = 0
KSC1 210309Z 17011G16KT 32/17 A2979 RMK A01 T03160165  RH  040%=      5-min Rain = 0
KSC1 210310Z 17009G14KT 32/17 A2979 RMK A01 T03160166  RH  041%=      5-min Rain = 0
KSC1 210311Z 17010KT 32/17 A2979 RMK A01 T03150166  RH  041%=      5-min Rain = 0
KSC1 210312Z 17010KT 31/17 A2979 RMK A01 T03140166  RH  041%=      5-min Rain = 0
KSC1 210313Z 16012KT 31/17 A2979 RMK A01 T03140166  RH  041%=      5-min Rain = 0
KSC1 210314Z 16011KT 31/17 A2979 RMK A01 T03140165  RH  041%=      5-min Rain = 0
KSC1 210315Z 16011G16KT 31/17 A2979 RMK A01 T03140166  RH  041%=      5-min Rain = 0
KSC1 210316Z 17012KT 31/17 A2979 RMK A01 T03140166  RH  041%=      5-min Rain = 0
KSC1 210317Z 17010KT 32/17 A2979 RMK A01 T03150166  RH  041%=      5-min Rain = 0
KSC1 210318Z 17012KT 32/17 A2979 RMK A01 T03150166  RH  041%=      5-min Rain = 0
KSC1 210319Z 16014KT 32/17 A2979 RMK A01 T03150166  RH  041%=      5-min Rain = 0
KSC1 210320Z 17014KT 32/17 A2979 RMK A01 T03150166  RH  041%=      5-min Rain = 0
KSC1 210321Z 17014G20KT 32/17 A2979 RMK A01 T03160167  RH  041%=      5-min Rain = 0
KSC1 210322Z 17012G17KT 32/17 A2979 RMK A01 T03150167  RH  041%=      5-min Rain = 0
KSC1 210323Z 16013KT 32/17 A2979 RMK A01 T03150168  RH  041%=      5-min Rain = 0
KSC1 210324Z 16012KT 32/17 A298 RMK A01 T03150168  RH  041%=      5-min Rain = 0
KSC1 210325Z 17011KT 32/17 A298 RMK A01 T03150168  RH  041%=      5-min Rain = 0
KSC1 210326Z 17011G18KT 31/17 A298 RMK A01 T03140168  RH  042%=      5-min Rain = 0
KSC1 210327Z 17013G19KT 31/17 A298 RMK A01 T03140168  RH  042%=      5-min Rain = 0
KSC1 210328Z 17012KT 31/17 A298 RMK A01 T03130169  RH  042%=      5-min Rain = 0
KSC1 210329Z 16013KT 31/17 A298 RMK A01 T03130169  RH  042%=      5-min Rain = 0
KSC1 210330Z 17011KT 31/17 A298 RMK A01 T03130169  RH  042%=      5-min Rain = 0
KSC1 210331Z 17013KT 31/17 A298 RMK A01 T03130170  RH  042%=      5-min Rain = 0
KSC1 210332Z 17013KT 31/17 A298 RMK A01 T03130170  RH  042%=      5-min Rain = 0
KSC1 210333Z 16011KT 31/17 A298 RMK A01 T03130170  RH  042%=      5-min Rain = 0
KSC1 210334Z 16011KT 31/17 A298 RMK A01 T03120170  RH  043%=      5-min Rain = 0
KSC1 210335Z 16014KT 31/17 A298 RMK A01 T03110170  RH  043%=      5-min Rain = 0
KSC1 210336Z 17013KT 31/17 A298 RMK A01 T03110170  RH  043%=      5-min Rain = 0
KSC1 210337Z 17013KT 31/17 A298 RMK A01 T03110171  RH  043%=      5-min Rain = 0
KSC1 210338Z 17013KT 31/17 A298 RMK A01 T03110171  RH  043%=      5-min Rain = 0
KSC1 210339Z 17011G16KT 31/17 A298 RMK A01 T03110171  RH  043%=      5-min Rain = 0
KSC1 210340Z 16012KT 31/17 A298 RMK A01 T03110171  RH  043%=      5-min Rain = 0
KSC1 210341Z 17011KT 31/17 A298 RMK A01 T03100172  RH  043%=      5-min Rain = 0
KSC1 210342Z 17011G17KT 31/17 A298 RMK A01 T03100172  RH  044%=      5-min Rain = 0
KSC1 210343Z 17011G16KT 31/17 A298 RMK A01 T03090172  RH  044%=      5-min Rain = 0
KSC1 210344Z 17009KT 31/17 A298 RMK A01 T03080172  RH  044%=      5-min Rain = 0
KSC1 210345Z 17012KT 31/17 A298 RMK A01 T03070172  RH  044%=      5-min Rain = 0
KSC1 210346Z 17010KT 31/17 A298 RMK A01 T03080172  RH  044%=      5-min Rain = 0
KSC1 210347Z 17011KT 31/17 A298 RMK A01 T03080172  RH  044%=      5-min Rain = 0
KSC1 210348Z 18012KT 31/17 A2981 RMK A01 T03070173  RH  045%=      5-min Rain = 0
KSC1 210349Z 17012KT 31/17 A2981 RMK A01 T03070173  RH  045%=      5-min Rain = 0
KSC1 210350Z 17011KT 31/17 A2981 RMK A01 T03060173  RH  045%=      5-min Rain = 0
KSC1 210351Z 17011G16KT 31/17 A2981 RMK A01 T03070173  RH  045%=      5-min Rain = 0
KSC1 210352Z 18012KT 31/17 A2981 RMK A01 T03060173  RH  045%=      5-min Rain = 0
KSC1 210353Z 17011KT 31/17 A2981 RMK A01 T03060173  RH  045%=      5-min Rain = 0
KSC1 210354Z 17013KT 31/17 A2981 RMK A01 T03070173  RH  045%=      5-min Rain = 0
KSC1 210355Z 17011G17KT 31/17 A2981 RMK A01 T03060173  RH  045%=      5-min Rain = 0
KSC1 210356Z 17012KT 31/17 A2981 RMK A01 T03060173  RH  045%=      5-min Rain = 0
KSC1 210357Z 17010KT 31/17 A2981 RMK A01 T03050173  RH  045%=      5-min Rain = 0
KSC1 210358Z 18011KT 31/17 A2981 RMK A01 T03050173  RH  045%=      5-min Rain = 0
KSC1 210359Z 17011KT 30/17 A2981 RMK A01 T03040172  RH  045%=      5-min Rain = 0
KSC1 210400Z 17011KT 30/17 A2981 RMK A01 T03040172  RH  045%=      5-min Rain = 0
KSC1 210401Z 17011KT 30/17 A2981 RMK A01 T03040171  RH  045%=      5-min Rain = 0
KSC1 210402Z 16010KT 30/17 A2981 RMK A01 T03040172  RH  045%=      5-min Rain = 0
KSC1 210403Z 17011KT 30/17 A2981 RMK A01 T03030171  RH  045%=      5-min Rain = 0
KSC1 210404Z 18010KT 30/17 A2981 RMK A01 T03030171  RH  045%=      5-min Rain = 0
KSC1 210405Z 17010KT 30/17 A2981 RMK A01 T03020171  RH  045%=      5-min Rain = 0
KSC1 210406Z 17010KT 30/17 A2981 RMK A01 T03010171  RH  045%=      5-min Rain = 0
KSC1 210407Z 17010KT 30/17 A2981 RMK A01 T03010170  RH  045%=      5-min Rain = 0
KSC1 210408Z 17009KT 30/17 A2981 RMK A01 T03010170  RH  045%=      5-min Rain = 0
KSC1 210409Z 17011KT 30/17 A2981 RMK A01 T03000170  RH  046%=      5-min Rain = 0
KSC1 210410Z 17011KT 30/17 A2981 RMK A01 T02990169  RH  046%=      5-min Rain = 0
KSC1 210411Z 17011KT 30/17 A2981 RMK A01 T02990169  RH  045%=      5-min Rain = 0
KSC1 210412Z 17010G15KT 30/17 A2981 RMK A01 T02990169  RH  045%=      5-min Rain = 0
KSC1 210413Z 17011KT 30/17 A2981 RMK A01 T02990168  RH  045%=      5-min Rain = 0
KSC1 210414Z 17010KT 30/17 A2981 RMK A01 T02990168  RH  045%=      5-min Rain = 0
KSC1 210415Z 17009KT 30/17 A2981 RMK A01 T02990168  RH  045%=      5-min Rain = 0
KSC1 210416Z 17011KT 30/17 A2981 RMK A01 T02980167  RH  045%=      5-min Rain = 0
KSC1 210417Z 17010KT 30/17 A2981 RMK A01 T02970167  RH  045%=      5-min Rain = 0
KSC1 210418Z 17009KT 30/17 A2981 RMK A01 T02970167  RH  046%=      5-min Rain = 0
KSC1 210419Z 17010KT 30/17 A2981 RMK A01 T02960166  RH  046%=      5-min Rain = 0
KSC1 210420Z 16009KT 30/17 A2981 RMK A01 T02950166  RH  046%=      5-min Rain = 0
KSC1 210421Z 17009KT 29/17 A2981 RMK A01 T02940166  RH  046%=      5-min Rain = 0
KSC1 210422Z 16010KT 29/17 A2981 RMK A01 T02940165  RH  046%=      5-min Rain = 0
KSC1 210423Z 17009KT 29/17 A2981 RMK A01 T02940165  RH  046%=      5-min Rain = 0
KSC1 210424Z 17011KT 29/17 A2981 RMK A01 T02930165  RH  046%=      5-min Rain = 0
KSC1 210425Z 17009KT 29/17 A2981 RMK A01 T02930165  RH  046%=      5-min Rain = 0
KSC1 210426Z 17008KT 29/17 A2981 RMK A01 T02930165  RH  046%=      5-min Rain = 0
KSC1 210427Z 17010KT 29/16 A2981 RMK A01 T02920164  RH  046%=      5-min Rain = 0
KSC1 210428Z 17009KT 29/17 A2981 RMK A01 T02920165  RH  046%=      5-min Rain = 0
KSC1 210429Z 17010KT 29/16 A2981 RMK A01 T02910164  RH  046%=      5-min Rain = 0
KSC1 210430Z 17010KT 29/16 A2981 RMK A01 T02910164  RH  046%=      5-min Rain = 0
KSC1 210431Z 17010KT 29/16 A2981 RMK A01 T02900164  RH  046%=      5-min Rain = 0
KSC1 210432Z 17010KT 29/16 A2981 RMK A01 T02910164  RH  046%=      5-min Rain = 0
KSC1 210433Z 17009KT 29/16 A2981 RMK A01 T02910164  RH  046%=      5-min Rain = 0
KSC1 210434Z 17010KT 29/16 A2981 RMK A01 T02900164  RH  046%=      5-min Rain = 0
KSC1 210435Z 17009KT 29/16 A2981 RMK A01 T02910164  RH  046%=      5-min Rain = 0
KSC1 210436Z 17011KT 29/16 A2981 RMK A01 T02900164  RH  046%=      5-min Rain = 0
KSC1 210437Z 17011G16KT 29/16 A2981 RMK A01 T02900164  RH  046%=      5-min Rain = 0
KSC1 210438Z 17011KT 29/16 A2981 RMK A01 T02900164  RH  046%=      5-min Rain = 0
KSC1 210439Z 17011KT 29/16 A2981 RMK A01 T02900164  RH  046%=      5-min Rain = 0
KSC1 210440Z 17010KT 29/16 A2981 RMK A01 T02900164  RH  046%=      5-min Rain = 0
KSC1 210441Z 17009KT 29/16 A2981 RMK A01 T02900164  RH  047%=      5-min Rain = 0
KSC1 210442Z 16010KT 29/16 A2981 RMK A01 T02890164  RH  047%=      5-min Rain = 0
KSC1 210443Z 17009KT 29/16 A2981 RMK A01 T02880164  RH  047%=      5-min Rain = 0
KSC1 210444Z 17011KT 29/16 A2981 RMK A01 T02880164  RH  047%=      5-min Rain = 0
KSC1 210445Z 16010KT 29/16 A2981 RMK A01 T02870164  RH  047%=      5-min Rain = 0
KSC1 210446Z 17009KT 29/17 A2981 RMK A01 T02870165  RH  047%=      5-min Rain = 0
KSC1 210447Z 17009KT 29/17 A2981 RMK A01 T02870165  RH  048%=      5-min Rain = 0
KSC1 210448Z 17010G15KT 29/17 A2981 RMK A01 T02870165  RH  048%=      5-min Rain = 0
KSC1 210449Z 17009G14KT 29/17 A2981 RMK A01 T02860165  RH  048%=      5-min Rain = 0
KSC1 210450Z 17011G16KT 29/17 A2981 RMK A01 T02870166  RH  048%=      5-min Rain = 0
KSC1 210451Z 17011KT 29/17 A2981 RMK A01 T02870166  RH  048%=      5-min Rain = 0
KSC1 210452Z 17011KT 29/17 A2981 RMK A01 T02880166  RH  048%=      5-min Rain = 0
KSC1 210453Z 17011KT 29/17 A2981 RMK A01 T02880167  RH  048%=      5-min Rain = 0
KSC1 210454Z 17009KT 29/17 A2981 RMK A01 T02880167  RH  048%=      5-min Rain = 0
KSC1 210455Z 17013KT 29/17 A2981 RMK A01 T02880168  RH  048%=      5-min Rain = 0
KSC1 210456Z 17012KT 29/17 A2981 RMK A01 T02880168  RH  048%=      5-min Rain = 0
KSC1 210457Z 17012KT 29/17 A2981 RMK A01 T02890169  RH  048%=      5-min Rain = 0
KSC1 210458Z 17011KT 29/17 A2981 RMK A01 T02890169  RH  048%=      5-min Rain = 0
KSC1 210459Z 17009KT 29/17 A2981 RMK A01 T02880170  RH  049%=      5-min Rain = 0

Page generated in 0.1923 seconds.